<?xml version="1.0" encoding="UTF-8" standalone="no" ?>
<gpx xmlns="http://www.topografix.com/GPX/1/1" xmlns:xsi="http://www.w3.org/2001/XMLSchema-instance" xsi:schemaLocation="http://www.topografix.com/GPX/1/1 http://www.topografix.com/GPX/1/1/gpx.xsd" version="1.1" creator="VisuGPX - https://www.visugpx.com">
  <metadata>
    <name>Gtmc etape 5</name>
    <desc><![CDATA[etape 5 gtmc
pont de montvert- nivoliers ]]></desc>
  </metadata>
  <trk>
    <name><![CDATA[Gtmc-etape 5 pont de mont vert -- nivoliers-S1-F-F...]]></name>
    <trkseg>
      <trkpt lat="44.36531" lon="3.74663">
        <ele>930.09375</ele>
        <time>2010-01-02T13:53:39Z</time>
      </trkpt>
      <trkpt lat="44.36504" lon="3.74649">
        <ele>929.868286</ele>
        <time>2010-01-02T13:53:51Z</time>
      </trkpt>
      <trkpt lat="44.36478" lon="3.74643">
        <ele>930.347961</ele>
        <time>2010-01-02T13:54:01Z</time>
      </trkpt>
      <trkpt lat="44.36408" lon="3.74653">
        <ele>930.375</ele>
        <time>2010-01-02T13:54:29Z</time>
      </trkpt>
      <trkpt lat="44.36391" lon="3.74666">
        <ele>927.909973</ele>
        <time>2010-01-02T13:54:37Z</time>
      </trkpt>
      <trkpt lat="44.36381" lon="3.74691">
        <ele>928.562378</ele>
        <time>2010-01-02T13:54:45Z</time>
      </trkpt>
      <trkpt lat="44.36375" lon="3.74729">
        <ele>931.082764</ele>
        <time>2010-01-02T13:54:57Z</time>
      </trkpt>
      <trkpt lat="44.36365" lon="3.74726">
        <ele>924.743591</ele>
        <time>2010-01-02T13:55:01Z</time>
      </trkpt>
      <trkpt lat="44.36369" lon="3.747">
        <ele>923.78949</ele>
        <time>2010-01-02T13:55:08Z</time>
      </trkpt>
      <trkpt lat="44.36402" lon="3.74551">
        <ele>899.970398</ele>
        <time>2010-01-02T13:55:53Z</time>
      </trkpt>
      <trkpt lat="44.36399" lon="3.74534">
        <ele>897.282227</ele>
        <time>2010-01-02T13:55:58Z</time>
      </trkpt>
      <trkpt lat="44.36387" lon="3.74528">
        <ele>895.41217</ele>
        <time>2010-01-02T13:56:03Z</time>
      </trkpt>
      <trkpt lat="44.36378" lon="3.74534">
        <ele>895.381592</ele>
        <time>2010-01-02T13:56:07Z</time>
      </trkpt>
      <trkpt lat="44.3635" lon="3.74593">
        <ele>898.754822</ele>
        <time>2010-01-02T13:56:27Z</time>
      </trkpt>
      <trkpt lat="44.36343" lon="3.7469">
        <ele>906.898926</ele>
        <time>2010-01-02T13:56:55Z</time>
      </trkpt>
      <trkpt lat="44.36337" lon="3.74695">
        <ele>903.318176</ele>
        <time>2010-01-02T13:56:58Z</time>
      </trkpt>
      <trkpt lat="44.36308" lon="3.74621">
        <ele>888.770447</ele>
        <time>2010-01-02T13:57:22Z</time>
      </trkpt>
      <trkpt lat="44.36304" lon="3.7448">
        <ele>883.878845</ele>
        <time>2010-01-02T13:58:03Z</time>
      </trkpt>
      <trkpt lat="44.36335" lon="3.74362">
        <ele>881.22522</ele>
        <time>2010-01-02T13:58:38Z</time>
      </trkpt>
      <trkpt lat="44.36287" lon="3.74338">
        <ele>878.620728</ele>
        <time>2010-01-02T13:58:59Z</time>
      </trkpt>
      <trkpt lat="44.36321" lon="3.74198">
        <ele>877.68335</ele>
        <time>2010-01-02T13:59:41Z</time>
      </trkpt>
      <trkpt lat="44.36376" lon="3.74019">
        <ele>879.273071</ele>
        <time>2010-01-02T14:00:37Z</time>
      </trkpt>
      <trkpt lat="44.36376" lon="3.73984">
        <ele>881.372742</ele>
        <time>2010-01-02T14:00:47Z</time>
      </trkpt>
      <trkpt lat="44.36382" lon="3.73945">
        <ele>883.407776</ele>
        <time>2010-01-02T14:00:58Z</time>
      </trkpt>
      <trkpt lat="44.36385" lon="3.73889">
        <ele>887.99585</ele>
        <time>2010-01-02T14:01:14Z</time>
      </trkpt>
      <trkpt lat="44.36406" lon="3.73806">
        <ele>884.749023</ele>
        <time>2010-01-02T14:01:40Z</time>
      </trkpt>
      <trkpt lat="44.36395" lon="3.73793">
        <ele>887.851746</ele>
        <time>2010-01-02T14:01:45Z</time>
      </trkpt>
      <trkpt lat="44.36312" lon="3.73815">
        <ele>914.008972</ele>
        <time>2010-01-02T14:02:19Z</time>
      </trkpt>
      <trkpt lat="44.36159" lon="3.73848">
        <ele>922.459167</ele>
        <time>2010-01-02T14:03:21Z</time>
      </trkpt>
      <trkpt lat="44.36143" lon="3.73832">
        <ele>916.167419</ele>
        <time>2010-01-02T14:03:29Z</time>
      </trkpt>
      <trkpt lat="44.36128" lon="3.73808">
        <ele>914.017944</ele>
        <time>2010-01-02T14:03:38Z</time>
      </trkpt>
      <trkpt lat="44.3611" lon="3.7379">
        <ele>915.985901</ele>
        <time>2010-01-02T14:03:47Z</time>
      </trkpt>
      <trkpt lat="44.36092" lon="3.73789">
        <ele>923.099365</ele>
        <time>2010-01-02T14:03:54Z</time>
      </trkpt>
      <trkpt lat="44.36067" lon="3.73772">
        <ele>924.547729</ele>
        <time>2010-01-02T14:04:05Z</time>
      </trkpt>
      <trkpt lat="44.3606" lon="3.73757">
        <ele>918.80719</ele>
        <time>2010-01-02T14:04:11Z</time>
      </trkpt>
      <trkpt lat="44.36055" lon="3.73751">
        <ele>917.127686</ele>
        <time>2010-01-02T14:04:13Z</time>
      </trkpt>
      <trkpt lat="44.36038" lon="3.73752">
        <ele>924.72644</ele>
        <time>2010-01-02T14:04:20Z</time>
      </trkpt>
      <trkpt lat="44.36028" lon="3.73735">
        <ele>919.065918</ele>
        <time>2010-01-02T14:04:26Z</time>
      </trkpt>
      <trkpt lat="44.36021" lon="3.73727">
        <ele>917.099854</ele>
        <time>2010-01-02T14:04:30Z</time>
      </trkpt>
      <trkpt lat="44.36011" lon="3.73727">
        <ele>921.178223</ele>
        <time>2010-01-02T14:04:34Z</time>
      </trkpt>
      <trkpt lat="44.36002" lon="3.73722">
        <ele>924.091797</ele>
        <time>2010-01-02T14:04:38Z</time>
      </trkpt>
      <trkpt lat="44.35975" lon="3.73671">
        <ele>916.308533</ele>
        <time>2010-01-02T14:04:56Z</time>
      </trkpt>
      <trkpt lat="44.35972" lon="3.73641">
        <ele>905.107605</ele>
        <time>2010-01-02T14:05:05Z</time>
      </trkpt>
      <trkpt lat="44.35964" lon="3.73627">
        <ele>906.069519</ele>
        <time>2010-01-02T14:05:10Z</time>
      </trkpt>
      <trkpt lat="44.35938" lon="3.73614">
        <ele>924.084961</ele>
        <time>2010-01-02T14:05:21Z</time>
      </trkpt>
      <trkpt lat="44.35921" lon="3.73583">
        <ele>923.854553</ele>
        <time>2010-01-02T14:05:32Z</time>
      </trkpt>
      <trkpt lat="44.35903" lon="3.73557">
        <ele>926.321716</ele>
        <time>2010-01-02T14:05:42Z</time>
      </trkpt>
      <trkpt lat="44.35883" lon="3.73512">
        <ele>919.941406</ele>
        <time>2010-01-02T14:05:58Z</time>
      </trkpt>
      <trkpt lat="44.35889" lon="3.73445">
        <ele>914.318237</ele>
        <time>2010-01-02T14:06:17Z</time>
      </trkpt>
      <trkpt lat="44.35901" lon="3.73384">
        <ele>913.604736</ele>
        <time>2010-01-02T14:06:35Z</time>
      </trkpt>
      <trkpt lat="44.35903" lon="3.73351">
        <ele>916.4245</ele>
        <time>2010-01-02T14:06:44Z</time>
      </trkpt>
      <trkpt lat="44.359" lon="3.73331">
        <ele>921.295044</ele>
        <time>2010-01-02T14:06:50Z</time>
      </trkpt>
      <trkpt lat="44.35891" lon="3.7326">
        <ele>922.142883</ele>
        <time>2010-01-02T14:07:11Z</time>
      </trkpt>
      <trkpt lat="44.35901" lon="3.73237">
        <ele>924.168945</ele>
        <time>2010-01-02T14:07:19Z</time>
      </trkpt>
      <trkpt lat="44.35915" lon="3.73232">
        <ele>918.19696</ele>
        <time>2010-01-02T14:07:24Z</time>
      </trkpt>
      <trkpt lat="44.35929" lon="3.73211">
        <ele>916.454102</ele>
        <time>2010-01-02T14:07:33Z</time>
      </trkpt>
      <trkpt lat="44.3593" lon="3.73173">
        <ele>926.369141</ele>
        <time>2010-01-02T14:07:43Z</time>
      </trkpt>
      <trkpt lat="44.35914" lon="3.73149">
        <ele>942.33252</ele>
        <time>2010-01-02T14:07:53Z</time>
      </trkpt>
      <trkpt lat="44.359" lon="3.73113">
        <ele>950.021362</ele>
        <time>2010-01-02T14:08:05Z</time>
      </trkpt>
      <trkpt lat="44.35892" lon="3.7307">
        <ele>946.38446</ele>
        <time>2010-01-02T14:08:17Z</time>
      </trkpt>
      <trkpt lat="44.35878" lon="3.73056">
        <ele>950.074341</ele>
        <time>2010-01-02T14:08:24Z</time>
      </trkpt>
      <trkpt lat="44.35864" lon="3.73053">
        <ele>954.770386</ele>
        <time>2010-01-02T14:08:30Z</time>
      </trkpt>
      <trkpt lat="44.35836" lon="3.73057">
        <ele>965.26001</ele>
        <time>2010-01-02T14:08:41Z</time>
      </trkpt>
      <trkpt lat="44.35825" lon="3.73061">
        <ele>968.361816</ele>
        <time>2010-01-02T14:08:46Z</time>
      </trkpt>
      <trkpt lat="44.35794" lon="3.7304">
        <ele>966.174561</ele>
        <time>2010-01-02T14:08:59Z</time>
      </trkpt>
      <trkpt lat="44.35745" lon="3.73013">
        <ele>967.871521</ele>
        <time>2010-01-02T14:09:21Z</time>
      </trkpt>
      <trkpt lat="44.35738" lon="3.73006">
        <ele>967.064331</ele>
        <time>2010-01-02T14:09:24Z</time>
      </trkpt>
      <trkpt lat="44.35737" lon="3.72987">
        <ele>962.869995</ele>
        <time>2010-01-02T14:09:29Z</time>
      </trkpt>
      <trkpt lat="44.35746" lon="3.72921">
        <ele>948.244629</ele>
        <time>2010-01-02T14:09:49Z</time>
      </trkpt>
      <trkpt lat="44.35745" lon="3.72894">
        <ele>949.726624</ele>
        <time>2010-01-02T14:09:56Z</time>
      </trkpt>
      <trkpt lat="44.35694" lon="3.72763">
        <ele>974.082153</ele>
        <time>2010-01-02T14:10:39Z</time>
      </trkpt>
      <trkpt lat="44.3567" lon="3.72687">
        <ele>969.310242</ele>
        <time>2010-01-02T14:11:03Z</time>
      </trkpt>
      <trkpt lat="44.35657" lon="3.72653">
        <ele>971.112366</ele>
        <time>2010-01-02T14:11:14Z</time>
      </trkpt>
      <trkpt lat="44.35654" lon="3.72631">
        <ele>969.230408</ele>
        <time>2010-01-02T14:11:20Z</time>
      </trkpt>
      <trkpt lat="44.35654" lon="3.72602">
        <ele>969.545349</ele>
        <time>2010-01-02T14:11:29Z</time>
      </trkpt>
      <trkpt lat="44.35655" lon="3.72561">
        <ele>970.157532</ele>
        <time>2010-01-02T14:11:40Z</time>
      </trkpt>
      <trkpt lat="44.35645" lon="3.72542">
        <ele>974.608887</ele>
        <time>2010-01-02T14:11:47Z</time>
      </trkpt>
      <trkpt lat="44.35631" lon="3.72535">
        <ele>979.784058</ele>
        <time>2010-01-02T14:11:53Z</time>
      </trkpt>
      <trkpt lat="44.35613" lon="3.72533">
        <ele>984.987183</ele>
        <time>2010-01-02T14:12:00Z</time>
      </trkpt>
      <trkpt lat="44.35564" lon="3.72557">
        <ele>1001.275818</ele>
        <time>2010-01-02T14:12:21Z</time>
      </trkpt>
      <trkpt lat="44.35505" lon="3.72569">
        <ele>1009.125061</ele>
        <time>2010-01-02T14:12:45Z</time>
      </trkpt>
      <trkpt lat="44.35486" lon="3.72567">
        <ele>1007.779907</ele>
        <time>2010-01-02T14:12:53Z</time>
      </trkpt>
      <trkpt lat="44.35449" lon="3.72558">
        <ele>1003.182007</ele>
        <time>2010-01-02T14:13:08Z</time>
      </trkpt>
      <trkpt lat="44.3543" lon="3.72545">
        <ele>1001.386536</ele>
        <time>2010-01-02T14:13:16Z</time>
      </trkpt>
      <trkpt lat="44.35422" lon="3.72534">
        <ele>1000.121399</ele>
        <time>2010-01-02T14:13:21Z</time>
      </trkpt>
      <trkpt lat="44.35417" lon="3.72519">
        <ele>997.582764</ele>
        <time>2010-01-02T14:13:25Z</time>
      </trkpt>
      <trkpt lat="44.35403" lon="3.72502">
        <ele>998.219055</ele>
        <time>2010-01-02T14:13:33Z</time>
      </trkpt>
      <trkpt lat="44.35386" lon="3.72492">
        <ele>999.66803</ele>
        <time>2010-01-02T14:13:40Z</time>
      </trkpt>
      <trkpt lat="44.35371" lon="3.72487">
        <ele>1000.903503</ele>
        <time>2010-01-02T14:13:46Z</time>
      </trkpt>
      <trkpt lat="44.3536" lon="3.72488">
        <ele>1002.742493</ele>
        <time>2010-01-02T14:13:51Z</time>
      </trkpt>
      <trkpt lat="44.35345" lon="3.72481">
        <ele>1003.83728</ele>
        <time>2010-01-02T14:13:57Z</time>
      </trkpt>
      <trkpt lat="44.35339" lon="3.72466">
        <ele>1002.792969</ele>
        <time>2010-01-02T14:14:02Z</time>
      </trkpt>
      <trkpt lat="44.35341" lon="3.72412">
        <ele>997.785706</ele>
        <time>2010-01-02T14:14:17Z</time>
      </trkpt>
      <trkpt lat="44.35345" lon="3.72387">
        <ele>996.275208</ele>
        <time>2010-01-02T14:14:25Z</time>
      </trkpt>
      <trkpt lat="44.35333" lon="3.72348">
        <ele>999.789978</ele>
        <time>2010-01-02T14:14:37Z</time>
      </trkpt>
      <trkpt lat="44.35324" lon="3.72315">
        <ele>1002.72998</ele>
        <time>2010-01-02T14:14:47Z</time>
      </trkpt>
      <trkpt lat="44.35324" lon="3.72292">
        <ele>1003.038757</ele>
        <time>2010-01-02T14:14:54Z</time>
      </trkpt>
      <trkpt lat="44.35329" lon="3.72275">
        <ele>1001.841248</ele>
        <time>2010-01-02T14:14:59Z</time>
      </trkpt>
      <trkpt lat="44.3533" lon="3.72253">
        <ele>1001.94873</ele>
        <time>2010-01-02T14:15:05Z</time>
      </trkpt>
      <trkpt lat="44.35323" lon="3.72241">
        <ele>1004.0625</ele>
        <time>2010-01-02T14:15:10Z</time>
      </trkpt>
      <trkpt lat="44.35306" lon="3.72225">
        <ele>1007.297607</ele>
        <time>2010-01-02T14:15:18Z</time>
      </trkpt>
      <trkpt lat="44.35298" lon="3.72203">
        <ele>1006.67749</ele>
        <time>2010-01-02T14:15:25Z</time>
      </trkpt>
      <trkpt lat="44.35288" lon="3.72203">
        <ele>1008.111389</ele>
        <time>2010-01-02T14:15:29Z</time>
      </trkpt>
      <trkpt lat="44.35278" lon="3.72218">
        <ele>1010.909851</ele>
        <time>2010-01-02T14:15:35Z</time>
      </trkpt>
      <trkpt lat="44.35271" lon="3.72243">
        <ele>1014.247498</ele>
        <time>2010-01-02T14:15:42Z</time>
      </trkpt>
      <trkpt lat="44.35271" lon="3.72254">
        <ele>1014.838074</ele>
        <time>2010-01-02T14:15:46Z</time>
      </trkpt>
      <trkpt lat="44.35265" lon="3.72283">
        <ele>1017.658081</ele>
        <time>2010-01-02T14:15:54Z</time>
      </trkpt>
      <trkpt lat="44.3525" lon="3.72296">
        <ele>1020.922729</ele>
        <time>2010-01-02T14:16:01Z</time>
      </trkpt>
      <trkpt lat="44.3524" lon="3.72302">
        <ele>1023.204346</ele>
        <time>2010-01-02T14:16:06Z</time>
      </trkpt>
      <trkpt lat="44.3523" lon="3.72313">
        <ele>1025.72876</ele>
        <time>2010-01-02T14:16:11Z</time>
      </trkpt>
      <trkpt lat="44.35212" lon="3.72355">
        <ele>1031.530273</ele>
        <time>2010-01-02T14:16:25Z</time>
      </trkpt>
      <trkpt lat="44.35201" lon="3.72363">
        <ele>1034.314087</ele>
        <time>2010-01-02T14:16:30Z</time>
      </trkpt>
      <trkpt lat="44.35191" lon="3.72382">
        <ele>1037.008789</ele>
        <time>2010-01-02T14:16:36Z</time>
      </trkpt>
      <trkpt lat="44.35152" lon="3.72422">
        <ele>1043.077393</ele>
        <time>2010-01-02T14:16:56Z</time>
      </trkpt>
      <trkpt lat="44.35126" lon="3.72471">
        <ele>1044.972412</ele>
        <time>2010-01-02T14:17:13Z</time>
      </trkpt>
      <trkpt lat="44.35068" lon="3.72534">
        <ele>1045.802368</ele>
        <time>2010-01-02T14:17:43Z</time>
      </trkpt>
      <trkpt lat="44.35024" lon="3.72585">
        <ele>1048.165527</ele>
        <time>2010-01-02T14:18:06Z</time>
      </trkpt>
      <trkpt lat="44.35015" lon="3.72602">
        <ele>1048.57959</ele>
        <time>2010-01-02T14:18:12Z</time>
      </trkpt>
      <trkpt lat="44.34993" lon="3.72622">
        <ele>1048.859009</ele>
        <time>2010-01-02T14:18:22Z</time>
      </trkpt>
      <trkpt lat="44.3498" lon="3.7263">
        <ele>1047.689941</ele>
        <time>2010-01-02T14:18:28Z</time>
      </trkpt>
      <trkpt lat="44.34974" lon="3.72647">
        <ele>1046.90625</ele>
        <time>2010-01-02T14:18:33Z</time>
      </trkpt>
      <trkpt lat="44.3493" lon="3.72699">
        <ele>1041.380005</ele>
        <time>2010-01-02T14:18:56Z</time>
      </trkpt>
      <trkpt lat="44.34924" lon="3.72698">
        <ele>1040.891235</ele>
        <time>2010-01-02T14:18:59Z</time>
      </trkpt>
      <trkpt lat="44.34915" lon="3.72688">
        <ele>1040.536255</ele>
        <time>2010-01-02T14:19:03Z</time>
      </trkpt>
      <trkpt lat="44.34904" lon="3.72694">
        <ele>1039.266235</ele>
        <time>2010-01-02T14:19:08Z</time>
      </trkpt>
      <trkpt lat="44.34899" lon="3.72719">
        <ele>1037.632935</ele>
        <time>2010-01-02T14:19:16Z</time>
      </trkpt>
      <trkpt lat="44.34884" lon="3.72784">
        <ele>1038.24585</ele>
        <time>2010-01-02T14:19:35Z</time>
      </trkpt>
      <trkpt lat="44.34867" lon="3.72809">
        <ele>1040.912231</ele>
        <time>2010-01-02T14:19:45Z</time>
      </trkpt>
      <trkpt lat="44.34851" lon="3.72814">
        <ele>1041.083618</ele>
        <time>2010-01-02T14:19:51Z</time>
      </trkpt>
      <trkpt lat="44.34837" lon="3.72828">
        <ele>1043.999268</ele>
        <time>2010-01-02T14:19:58Z</time>
      </trkpt>
      <trkpt lat="44.3476" lon="3.72947">
        <ele>1055.327515</ele>
        <time>2010-01-02T14:20:44Z</time>
      </trkpt>
      <trkpt lat="44.34749" lon="3.72975">
        <ele>1059.935059</ele>
        <time>2010-01-02T14:20:53Z</time>
      </trkpt>
      <trkpt lat="44.34722" lon="3.7302">
        <ele>1064.570923</ele>
        <time>2010-01-02T14:21:10Z</time>
      </trkpt>
      <trkpt lat="44.34711" lon="3.73028">
        <ele>1064.227295</ele>
        <time>2010-01-02T14:21:15Z</time>
      </trkpt>
      <trkpt lat="44.34699" lon="3.73028">
        <ele>1062.224365</ele>
        <time>2010-01-02T14:21:20Z</time>
      </trkpt>
      <trkpt lat="44.34685" lon="3.73037">
        <ele>1061.550049</ele>
        <time>2010-01-02T14:21:26Z</time>
      </trkpt>
      <trkpt lat="44.34667" lon="3.73061">
        <ele>1061.960205</ele>
        <time>2010-01-02T14:21:36Z</time>
      </trkpt>
      <trkpt lat="44.34617" lon="3.7315">
        <ele>1064.655762</ele>
        <time>2010-01-02T14:22:09Z</time>
      </trkpt>
      <trkpt lat="44.34599" lon="3.7317">
        <ele>1064.302246</ele>
        <time>2010-01-02T14:22:18Z</time>
      </trkpt>
      <trkpt lat="44.3459" lon="3.73188">
        <ele>1065.540161</ele>
        <time>2010-01-02T14:22:24Z</time>
      </trkpt>
      <trkpt lat="44.34564" lon="3.73209">
        <ele>1066.756836</ele>
        <time>2010-01-02T14:22:36Z</time>
      </trkpt>
      <trkpt lat="44.34549" lon="3.73208">
        <ele>1066.086426</ele>
        <time>2010-01-02T14:22:42Z</time>
      </trkpt>
      <trkpt lat="44.34523" lon="3.73227">
        <ele>1069.446533</ele>
        <time>2010-01-02T14:22:54Z</time>
      </trkpt>
      <trkpt lat="44.34492" lon="3.73261">
        <ele>1075.191406</ele>
        <time>2010-01-02T14:23:10Z</time>
      </trkpt>
      <trkpt lat="44.34479" lon="3.73283">
        <ele>1078.290283</ele>
        <time>2010-01-02T14:23:18Z</time>
      </trkpt>
      <trkpt lat="44.34459" lon="3.73341">
        <ele>1079.275146</ele>
        <time>2010-01-02T14:23:36Z</time>
      </trkpt>
      <trkpt lat="44.34442" lon="3.73373">
        <ele>1077.580322</ele>
        <time>2010-01-02T14:23:48Z</time>
      </trkpt>
      <trkpt lat="44.34447" lon="3.73431">
        <ele>1077.98999</ele>
        <time>2010-01-02T14:24:04Z</time>
      </trkpt>
      <trkpt lat="44.34435" lon="3.73465">
        <ele>1077.922852</ele>
        <time>2010-01-02T14:24:15Z</time>
      </trkpt>
      <trkpt lat="44.34427" lon="3.7351">
        <ele>1081.55481</ele>
        <time>2010-01-02T14:24:28Z</time>
      </trkpt>
      <trkpt lat="44.34411" lon="3.73554">
        <ele>1085.055054</ele>
        <time>2010-01-02T14:24:43Z</time>
      </trkpt>
      <trkpt lat="44.34399" lon="3.73562">
        <ele>1084.525024</ele>
        <time>2010-01-02T14:24:48Z</time>
      </trkpt>
      <trkpt lat="44.34389" lon="3.73564">
        <ele>1083.953369</ele>
        <time>2010-01-02T14:24:52Z</time>
      </trkpt>
      <trkpt lat="44.34376" lon="3.73557">
        <ele>1082.213989</ele>
        <time>2010-01-02T14:24:58Z</time>
      </trkpt>
      <trkpt lat="44.34364" lon="3.73544">
        <ele>1079.703369</ele>
        <time>2010-01-02T14:25:04Z</time>
      </trkpt>
      <trkpt lat="44.34353" lon="3.73542">
        <ele>1078.935425</ele>
        <time>2010-01-02T14:25:08Z</time>
      </trkpt>
      <trkpt lat="44.34319" lon="3.73561">
        <ele>1082.195313</ele>
        <time>2010-01-02T14:25:23Z</time>
      </trkpt>
      <trkpt lat="44.34283" lon="3.73587">
        <ele>1084.938477</ele>
        <time>2010-01-02T14:25:39Z</time>
      </trkpt>
      <trkpt lat="44.34253" lon="3.73595">
        <ele>1086.127319</ele>
        <time>2010-01-02T14:25:51Z</time>
      </trkpt>
      <trkpt lat="44.34211" lon="3.73564">
        <ele>1085.995972</ele>
        <time>2010-01-02T14:26:10Z</time>
      </trkpt>
      <trkpt lat="44.34204" lon="3.73562">
        <ele>1086.697266</ele>
        <time>2010-01-02T14:26:13Z</time>
      </trkpt>
      <trkpt lat="44.34182" lon="3.73569">
        <ele>1090.051514</ele>
        <time>2010-01-02T14:26:22Z</time>
      </trkpt>
      <trkpt lat="44.3417" lon="3.73571">
        <ele>1091.75</ele>
        <time>2010-01-02T14:26:27Z</time>
      </trkpt>
      <trkpt lat="44.34131" lon="3.73555">
        <ele>1091.653687</ele>
        <time>2010-01-02T14:26:43Z</time>
      </trkpt>
      <trkpt lat="44.34114" lon="3.73546">
        <ele>1091.370605</ele>
        <time>2010-01-02T14:26:50Z</time>
      </trkpt>
      <trkpt lat="44.3409" lon="3.73545">
        <ele>1093.169434</ele>
        <time>2010-01-02T14:27:00Z</time>
      </trkpt>
      <trkpt lat="44.34053" lon="3.73557">
        <ele>1095.442627</ele>
        <time>2010-01-02T14:27:15Z</time>
      </trkpt>
      <trkpt lat="44.34032" lon="3.73557">
        <ele>1094.978638</ele>
        <time>2010-01-02T14:27:24Z</time>
      </trkpt>
      <trkpt lat="44.34016" lon="3.73548">
        <ele>1093.595215</ele>
        <time>2010-01-02T14:27:31Z</time>
      </trkpt>
      <trkpt lat="44.34004" lon="3.73531">
        <ele>1090.981445</ele>
        <time>2010-01-02T14:27:37Z</time>
      </trkpt>
      <trkpt lat="44.33999" lon="3.73506">
        <ele>1087.650879</ele>
        <time>2010-01-02T14:27:45Z</time>
      </trkpt>
      <trkpt lat="44.33998" lon="3.73455">
        <ele>1082.024536</ele>
        <time>2010-01-02T14:27:59Z</time>
      </trkpt>
      <trkpt lat="44.33981" lon="3.7338">
        <ele>1084.486084</ele>
        <time>2010-01-02T14:28:22Z</time>
      </trkpt>
      <trkpt lat="44.33975" lon="3.73369">
        <ele>1085.664429</ele>
        <time>2010-01-02T14:28:26Z</time>
      </trkpt>
      <trkpt lat="44.33924" lon="3.73303">
        <ele>1090.206177</ele>
        <time>2010-01-02T14:28:54Z</time>
      </trkpt>
      <trkpt lat="44.3386" lon="3.7321">
        <ele>1088.992554</ele>
        <time>2010-01-02T14:29:31Z</time>
      </trkpt>
      <trkpt lat="44.33852" lon="3.73188">
        <ele>1089.065918</ele>
        <time>2010-01-02T14:29:38Z</time>
      </trkpt>
      <trkpt lat="44.33848" lon="3.73168">
        <ele>1089.186646</ele>
        <time>2010-01-02T14:29:44Z</time>
      </trkpt>
      <trkpt lat="44.3385" lon="3.73144">
        <ele>1089.410156</ele>
        <time>2010-01-02T14:29:51Z</time>
      </trkpt>
      <trkpt lat="44.3385" lon="3.73131">
        <ele>1089.987061</ele>
        <time>2010-01-02T14:29:54Z</time>
      </trkpt>
      <trkpt lat="44.33846" lon="3.7311">
        <ele>1090.944946</ele>
        <time>2010-01-02T14:30:01Z</time>
      </trkpt>
      <trkpt lat="44.33837" lon="3.73082">
        <ele>1092.215942</ele>
        <time>2010-01-02T14:30:09Z</time>
      </trkpt>
      <trkpt lat="44.33817" lon="3.73056">
        <ele>1094.2677</ele>
        <time>2010-01-02T14:30:20Z</time>
      </trkpt>
      <trkpt lat="44.33789" lon="3.73026">
        <ele>1095.984985</ele>
        <time>2010-01-02T14:30:34Z</time>
      </trkpt>
      <trkpt lat="44.3378" lon="3.72966">
        <ele>1099.660034</ele>
        <time>2010-01-02T14:30:52Z</time>
      </trkpt>
      <trkpt lat="44.33774" lon="3.72929">
        <ele>1100.473755</ele>
        <time>2010-01-02T14:31:03Z</time>
      </trkpt>
      <trkpt lat="44.33762" lon="3.72897">
        <ele>1100.432007</ele>
        <time>2010-01-02T14:31:13Z</time>
      </trkpt>
      <trkpt lat="44.33676" lon="3.72839">
        <ele>1099.170654</ele>
        <time>2010-01-02T14:31:51Z</time>
      </trkpt>
      <trkpt lat="44.33639" lon="3.72794">
        <ele>1099.638794</ele>
        <time>2010-01-02T14:32:11Z</time>
      </trkpt>
      <trkpt lat="44.33606" lon="3.72767">
        <ele>1099.411255</ele>
        <time>2010-01-02T14:32:26Z</time>
      </trkpt>
      <trkpt lat="44.33592" lon="3.72763">
        <ele>1099.084961</ele>
        <time>2010-01-02T14:32:32Z</time>
      </trkpt>
      <trkpt lat="44.33582" lon="3.72765">
        <ele>1099.012451</ele>
        <time>2010-01-02T14:32:36Z</time>
      </trkpt>
      <trkpt lat="44.33575" lon="3.72775">
        <ele>1098.53125</ele>
        <time>2010-01-02T14:32:40Z</time>
      </trkpt>
      <trkpt lat="44.3355" lon="3.72798">
        <ele>1097.413696</ele>
        <time>2010-01-02T14:32:52Z</time>
      </trkpt>
      <trkpt lat="44.33525" lon="3.72808">
        <ele>1098.012451</ele>
        <time>2010-01-02T14:33:03Z</time>
      </trkpt>
      <trkpt lat="44.33506" lon="3.72803">
        <ele>1099.079956</ele>
        <time>2010-01-02T14:33:10Z</time>
      </trkpt>
      <trkpt lat="44.33484" lon="3.72777">
        <ele>1100.436768</ele>
        <time>2010-01-02T14:33:22Z</time>
      </trkpt>
      <trkpt lat="44.33452" lon="3.72689">
        <ele>1100.492188</ele>
        <time>2010-01-02T14:33:50Z</time>
      </trkpt>
      <trkpt lat="44.33455" lon="3.72612">
        <ele>1099.842407</ele>
        <time>2010-01-02T14:34:12Z</time>
      </trkpt>
      <trkpt lat="44.33452" lon="3.72598">
        <ele>1099.259644</ele>
        <time>2010-01-02T14:34:16Z</time>
      </trkpt>
      <trkpt lat="44.33439" lon="3.72572">
        <ele>1097.223755</ele>
        <time>2010-01-02T14:34:25Z</time>
      </trkpt>
      <trkpt lat="44.33424" lon="3.72456">
        <ele>1090.567749</ele>
        <time>2010-01-02T14:34:59Z</time>
      </trkpt>
      <trkpt lat="44.33411" lon="3.72392">
        <ele>1086.851807</ele>
        <time>2010-01-02T14:35:18Z</time>
      </trkpt>
      <trkpt lat="44.33407" lon="3.72366">
        <ele>1085.344849</ele>
        <time>2010-01-02T14:35:26Z</time>
      </trkpt>
      <trkpt lat="44.33396" lon="3.72358">
        <ele>1084.648071</ele>
        <time>2010-01-02T14:35:31Z</time>
      </trkpt>
      <trkpt lat="44.33342" lon="3.72366">
        <ele>1081.842773</ele>
        <time>2010-01-02T14:35:53Z</time>
      </trkpt>
      <trkpt lat="44.3332" lon="3.72401">
        <ele>1080.227417</ele>
        <time>2010-01-02T14:36:06Z</time>
      </trkpt>
      <trkpt lat="44.33307" lon="3.72382">
        <ele>1079.410034</ele>
        <time>2010-01-02T14:36:13Z</time>
      </trkpt>
      <trkpt lat="44.33277" lon="3.72369">
        <ele>1077.916992</ele>
        <time>2010-01-02T14:36:26Z</time>
      </trkpt>
      <trkpt lat="44.33208" lon="3.72349">
        <ele>1078.482422</ele>
        <time>2010-01-02T14:36:54Z</time>
      </trkpt>
      <trkpt lat="44.33179" lon="3.72311">
        <ele>1078.094116</ele>
        <time>2010-01-02T14:37:10Z</time>
      </trkpt>
      <trkpt lat="44.33165" lon="3.72279">
        <ele>1077.172974</ele>
        <time>2010-01-02T14:37:21Z</time>
      </trkpt>
      <trkpt lat="44.3314" lon="3.72213">
        <ele>1075.875</ele>
        <time>2010-01-02T14:37:42Z</time>
      </trkpt>
      <trkpt lat="44.33133" lon="3.72203">
        <ele>1076.037476</ele>
        <time>2010-01-02T14:37:46Z</time>
      </trkpt>
      <trkpt lat="44.33125" lon="3.72204">
        <ele>1077</ele>
        <time>2010-01-02T14:37:49Z</time>
      </trkpt>
      <trkpt lat="44.33109" lon="3.72211">
        <ele>1079.25</ele>
        <time>2010-01-02T14:37:56Z</time>
      </trkpt>
      <trkpt lat="44.33093" lon="3.72213">
        <ele>1079.751221</ele>
        <time>2010-01-02T14:38:03Z</time>
      </trkpt>
      <trkpt lat="44.33075" lon="3.7221">
        <ele>1079.834106</ele>
        <time>2010-01-02T14:38:10Z</time>
      </trkpt>
      <trkpt lat="44.3306" lon="3.72205">
        <ele>1079.704956</ele>
        <time>2010-01-02T14:38:16Z</time>
      </trkpt>
      <trkpt lat="44.33052" lon="3.72183">
        <ele>1077.9198</ele>
        <time>2010-01-02T14:38:23Z</time>
      </trkpt>
      <trkpt lat="44.3305" lon="3.72141">
        <ele>1073.559204</ele>
        <time>2010-01-02T14:38:35Z</time>
      </trkpt>
      <trkpt lat="44.33046" lon="3.72129">
        <ele>1072.561279</ele>
        <time>2010-01-02T14:38:39Z</time>
      </trkpt>
      <trkpt lat="44.33032" lon="3.72126">
        <ele>1073.215332</ele>
        <time>2010-01-02T14:38:45Z</time>
      </trkpt>
      <trkpt lat="44.33016" lon="3.7214">
        <ele>1075.523682</ele>
        <time>2010-01-02T14:38:52Z</time>
      </trkpt>
      <trkpt lat="44.32986" lon="3.72172">
        <ele>1079.857178</ele>
        <time>2010-01-02T14:39:07Z</time>
      </trkpt>
      <trkpt lat="44.32948" lon="3.72196">
        <ele>1079.815063</ele>
        <time>2010-01-02T14:39:24Z</time>
      </trkpt>
      <trkpt lat="44.32942" lon="3.72196">
        <ele>1079.162476</ele>
        <time>2010-01-02T14:39:26Z</time>
      </trkpt>
      <trkpt lat="44.32937" lon="3.72187">
        <ele>1078.022461</ele>
        <time>2010-01-02T14:39:30Z</time>
      </trkpt>
      <trkpt lat="44.32937" lon="3.72174">
        <ele>1077.380249</ele>
        <time>2010-01-02T14:39:33Z</time>
      </trkpt>
      <trkpt lat="44.32961" lon="3.72124">
        <ele>1075.034546</ele>
        <time>2010-01-02T14:39:51Z</time>
      </trkpt>
      <trkpt lat="44.32971" lon="3.72106">
        <ele>1075.066284</ele>
        <time>2010-01-02T14:39:57Z</time>
      </trkpt>
      <trkpt lat="44.33025" lon="3.72047">
        <ele>1068.335083</ele>
        <time>2010-01-02T14:40:25Z</time>
      </trkpt>
      <trkpt lat="44.33034" lon="3.72022">
        <ele>1068.125</ele>
        <time>2010-01-02T14:40:33Z</time>
      </trkpt>
      <trkpt lat="44.33042" lon="3.71998">
        <ele>1067.534546</ele>
        <time>2010-01-02T14:40:40Z</time>
      </trkpt>
      <trkpt lat="44.33046" lon="3.71972">
        <ele>1069.448242</ele>
        <time>2010-01-02T14:40:48Z</time>
      </trkpt>
      <trkpt lat="44.33046" lon="3.71957">
        <ele>1071.059204</ele>
        <time>2010-01-02T14:40:52Z</time>
      </trkpt>
      <trkpt lat="44.33042" lon="3.71941">
        <ele>1073.557983</ele>
        <time>2010-01-02T14:40:57Z</time>
      </trkpt>
      <trkpt lat="44.33031" lon="3.7192">
        <ele>1075.84729</ele>
        <time>2010-01-02T14:41:04Z</time>
      </trkpt>
      <trkpt lat="44.33026" lon="3.719">
        <ele>1076.230835</ele>
        <time>2010-01-02T14:41:10Z</time>
      </trkpt>
      <trkpt lat="44.33026" lon="3.71876">
        <ele>1075.637817</ele>
        <time>2010-01-02T14:41:17Z</time>
      </trkpt>
      <trkpt lat="44.33032" lon="3.71856">
        <ele>1073.462524</ele>
        <time>2010-01-02T14:41:23Z</time>
      </trkpt>
      <trkpt lat="44.33039" lon="3.71833">
        <ele>1070.868774</ele>
        <time>2010-01-02T14:41:31Z</time>
      </trkpt>
      <trkpt lat="44.33039" lon="3.71814">
        <ele>1069.375</ele>
        <time>2010-01-02T14:41:36Z</time>
      </trkpt>
      <trkpt lat="44.33033" lon="3.71804">
        <ele>1068.912964</ele>
        <time>2010-01-02T14:41:40Z</time>
      </trkpt>
      <trkpt lat="44.32955" lon="3.71796">
        <ele>1077.593384</ele>
        <time>2010-01-02T14:42:11Z</time>
      </trkpt>
      <trkpt lat="44.32944" lon="3.71785">
        <ele>1075.910889</ele>
        <time>2010-01-02T14:42:17Z</time>
      </trkpt>
      <trkpt lat="44.32941" lon="3.71771">
        <ele>1073.02124</ele>
        <time>2010-01-02T14:42:21Z</time>
      </trkpt>
      <trkpt lat="44.32943" lon="3.71752">
        <ele>1068.820068</ele>
        <time>2010-01-02T14:42:26Z</time>
      </trkpt>
      <trkpt lat="44.32999" lon="3.71678">
        <ele>1066.377563</ele>
        <time>2010-01-02T14:42:57Z</time>
      </trkpt>
      <trkpt lat="44.33038" lon="3.71662">
        <ele>1063.978394</ele>
        <time>2010-01-02T14:43:13Z</time>
      </trkpt>
      <trkpt lat="44.33048" lon="3.71642">
        <ele>1065.838623</ele>
        <time>2010-01-02T14:43:20Z</time>
      </trkpt>
      <trkpt lat="44.33068" lon="3.71577">
        <ele>1066.564941</ele>
        <time>2010-01-02T14:43:41Z</time>
      </trkpt>
      <trkpt lat="44.33066" lon="3.71557">
        <ele>1066.835205</ele>
        <time>2010-01-02T14:43:46Z</time>
      </trkpt>
      <trkpt lat="44.33048" lon="3.7154">
        <ele>1069.858765</ele>
        <time>2010-01-02T14:43:55Z</time>
      </trkpt>
      <trkpt lat="44.33044" lon="3.71502">
        <ele>1069.356812</ele>
        <time>2010-01-02T14:44:06Z</time>
      </trkpt>
      <trkpt lat="44.33085" lon="3.71431">
        <ele>1068.04248</ele>
        <time>2010-01-02T14:44:32Z</time>
      </trkpt>
      <trkpt lat="44.33088" lon="3.71413">
        <ele>1068.855103</ele>
        <time>2010-01-02T14:44:37Z</time>
      </trkpt>
      <trkpt lat="44.33088" lon="3.71388">
        <ele>1070.747192</ele>
        <time>2010-01-02T14:44:45Z</time>
      </trkpt>
      <trkpt lat="44.33094" lon="3.71374">
        <ele>1071.35376</ele>
        <time>2010-01-02T14:44:49Z</time>
      </trkpt>
      <trkpt lat="44.33104" lon="3.71366">
        <ele>1071.800049</ele>
        <time>2010-01-02T14:44:54Z</time>
      </trkpt>
      <trkpt lat="44.33133" lon="3.71372">
        <ele>1070.308716</ele>
        <time>2010-01-02T14:45:06Z</time>
      </trkpt>
      <trkpt lat="44.33177" lon="3.71372">
        <ele>1071.586182</ele>
        <time>2010-01-02T14:45:23Z</time>
      </trkpt>
      <trkpt lat="44.33195" lon="3.7138">
        <ele>1070.612549</ele>
        <time>2010-01-02T14:45:31Z</time>
      </trkpt>
      <trkpt lat="44.33207" lon="3.71379">
        <ele>1070.8125</ele>
        <time>2010-01-02T14:45:36Z</time>
      </trkpt>
      <trkpt lat="44.33216" lon="3.71368">
        <ele>1070.105103</ele>
        <time>2010-01-02T14:45:40Z</time>
      </trkpt>
      <trkpt lat="44.33221" lon="3.71352">
        <ele>1069.754272</ele>
        <time>2010-01-02T14:45:45Z</time>
      </trkpt>
      <trkpt lat="44.33221" lon="3.71337">
        <ele>1070.329834</ele>
        <time>2010-01-02T14:45:50Z</time>
      </trkpt>
      <trkpt lat="44.33209" lon="3.71268">
        <ele>1074.903931</ele>
        <time>2010-01-02T14:46:10Z</time>
      </trkpt>
      <trkpt lat="44.33217" lon="3.71216">
        <ele>1075.428711</ele>
        <time>2010-01-02T14:46:25Z</time>
      </trkpt>
      <trkpt lat="44.33218" lon="3.71196">
        <ele>1076.127441</ele>
        <time>2010-01-02T14:46:31Z</time>
      </trkpt>
      <trkpt lat="44.33205" lon="3.71183">
        <ele>1077.869873</ele>
        <time>2010-01-02T14:46:37Z</time>
      </trkpt>
      <trkpt lat="44.33183" lon="3.71177">
        <ele>1080.884399</ele>
        <time>2010-01-02T14:46:46Z</time>
      </trkpt>
      <trkpt lat="44.33174" lon="3.71162">
        <ele>1081.360962</ele>
        <time>2010-01-02T14:46:52Z</time>
      </trkpt>
      <trkpt lat="44.33166" lon="3.71116">
        <ele>1079.769165</ele>
        <time>2010-01-02T14:47:06Z</time>
      </trkpt>
      <trkpt lat="44.33158" lon="3.71093">
        <ele>1079.850708</ele>
        <time>2010-01-02T14:47:13Z</time>
      </trkpt>
      <trkpt lat="44.33139" lon="3.71073">
        <ele>1080.951172</ele>
        <time>2010-01-02T14:47:22Z</time>
      </trkpt>
      <trkpt lat="44.33134" lon="3.71059">
        <ele>1081.05127</ele>
        <time>2010-01-02T14:47:27Z</time>
      </trkpt>
      <trkpt lat="44.33134" lon="3.71047">
        <ele>1081.252441</ele>
        <time>2010-01-02T14:47:30Z</time>
      </trkpt>
      <trkpt lat="44.33151" lon="3.71005">
        <ele>1080.459961</ele>
        <time>2010-01-02T14:47:44Z</time>
      </trkpt>
      <trkpt lat="44.33195" lon="3.70947">
        <ele>1079.749756</ele>
        <time>2010-01-02T14:48:08Z</time>
      </trkpt>
      <trkpt lat="44.33222" lon="3.70854">
        <ele>1080.747925</ele>
        <time>2010-01-02T14:48:37Z</time>
      </trkpt>
      <trkpt lat="44.33241" lon="3.70775">
        <ele>1084.912476</ele>
        <time>2010-01-02T14:49:01Z</time>
      </trkpt>
      <trkpt lat="44.33241" lon="3.70677">
        <ele>1087.962524</ele>
        <time>2010-01-02T14:49:29Z</time>
      </trkpt>
      <trkpt lat="44.3326" lon="3.70603">
        <ele>1080.624268</ele>
        <time>2010-01-02T14:49:52Z</time>
      </trkpt>
      <trkpt lat="44.33256" lon="3.70574">
        <ele>1081.365112</ele>
        <time>2010-01-02T14:50:00Z</time>
      </trkpt>
      <trkpt lat="44.33248" lon="3.70564">
        <ele>1082.76062</ele>
        <time>2010-01-02T14:50:04Z</time>
      </trkpt>
      <trkpt lat="44.33234" lon="3.70558">
        <ele>1084.753784</ele>
        <time>2010-01-02T14:50:10Z</time>
      </trkpt>
      <trkpt lat="44.33217" lon="3.70559">
        <ele>1087.659424</ele>
        <time>2010-01-02T14:50:17Z</time>
      </trkpt>
      <trkpt lat="44.33202" lon="3.70562">
        <ele>1088.242676</ele>
        <time>2010-01-02T14:50:23Z</time>
      </trkpt>
      <trkpt lat="44.33185" lon="3.70573">
        <ele>1089.511475</ele>
        <time>2010-01-02T14:50:31Z</time>
      </trkpt>
      <trkpt lat="44.33154" lon="3.70597">
        <ele>1092.434204</ele>
        <time>2010-01-02T14:50:45Z</time>
      </trkpt>
      <trkpt lat="44.33116" lon="3.70606">
        <ele>1094.072388</ele>
        <time>2010-01-02T14:51:00Z</time>
      </trkpt>
      <trkpt lat="44.33093" lon="3.70615">
        <ele>1095.571289</ele>
        <time>2010-01-02T14:51:10Z</time>
      </trkpt>
      <trkpt lat="44.33085" lon="3.7062">
        <ele>1096.46582</ele>
        <time>2010-01-02T14:51:13Z</time>
      </trkpt>
      <trkpt lat="44.33069" lon="3.7062">
        <ele>1097.463745</ele>
        <time>2010-01-02T14:51:20Z</time>
      </trkpt>
      <trkpt lat="44.33051" lon="3.70606">
        <ele>1096.29248</ele>
        <time>2010-01-02T14:51:28Z</time>
      </trkpt>
      <trkpt lat="44.33029" lon="3.7056">
        <ele>1092.011841</ele>
        <time>2010-01-02T14:51:44Z</time>
      </trkpt>
      <trkpt lat="44.33" lon="3.70474">
        <ele>1086.617432</ele>
        <time>2010-01-02T14:52:11Z</time>
      </trkpt>
      <trkpt lat="44.32992" lon="3.70467">
        <ele>1088.388672</ele>
        <time>2010-01-02T14:52:15Z</time>
      </trkpt>
      <trkpt lat="44.32995" lon="3.70382">
        <ele>1080.711304</ele>
        <time>2010-01-02T14:52:39Z</time>
      </trkpt>
      <trkpt lat="44.32992" lon="3.70367">
        <ele>1081.622559</ele>
        <time>2010-01-02T14:52:44Z</time>
      </trkpt>
      <trkpt lat="44.32947" lon="3.70324">
        <ele>1094.851563</ele>
        <time>2010-01-02T14:53:05Z</time>
      </trkpt>
      <trkpt lat="44.32918" lon="3.70302">
        <ele>1099.351318</ele>
        <time>2010-01-02T14:53:19Z</time>
      </trkpt>
      <trkpt lat="44.32879" lon="3.70268">
        <ele>1096.671875</ele>
        <time>2010-01-02T14:53:37Z</time>
      </trkpt>
      <trkpt lat="44.32858" lon="3.70253">
        <ele>1095.240234</ele>
        <time>2010-01-02T14:53:46Z</time>
      </trkpt>
      <trkpt lat="44.32855" lon="3.70241">
        <ele>1091.734375</ele>
        <time>2010-01-02T14:53:50Z</time>
      </trkpt>
      <trkpt lat="44.32853" lon="3.70197">
        <ele>1089.213379</ele>
        <time>2010-01-02T14:54:03Z</time>
      </trkpt>
      <trkpt lat="44.32847" lon="3.70172">
        <ele>1087.861084</ele>
        <time>2010-01-02T14:54:10Z</time>
      </trkpt>
      <trkpt lat="44.32821" lon="3.70158">
        <ele>1088.00708</ele>
        <time>2010-01-02T14:54:21Z</time>
      </trkpt>
      <trkpt lat="44.32801" lon="3.70155">
        <ele>1091.435425</ele>
        <time>2010-01-02T14:54:29Z</time>
      </trkpt>
      <trkpt lat="44.32775" lon="3.70158">
        <ele>1097.557861</ele>
        <time>2010-01-02T14:54:40Z</time>
      </trkpt>
      <trkpt lat="44.32736" lon="3.70168">
        <ele>1107.641357</ele>
        <time>2010-01-02T14:54:56Z</time>
      </trkpt>
      <trkpt lat="44.32644" lon="3.70172">
        <ele>1108.689941</ele>
        <time>2010-01-02T14:55:33Z</time>
      </trkpt>
      <trkpt lat="44.32618" lon="3.7018">
        <ele>1107.952515</ele>
        <time>2010-01-02T14:55:43Z</time>
      </trkpt>
      <trkpt lat="44.32586" lon="3.70204">
        <ele>1109.608032</ele>
        <time>2010-01-02T14:55:58Z</time>
      </trkpt>
      <trkpt lat="44.32561" lon="3.7023">
        <ele>1109.186523</ele>
        <time>2010-01-02T14:56:10Z</time>
      </trkpt>
      <trkpt lat="44.32527" lon="3.70304">
        <ele>1112.4375</ele>
        <time>2010-01-02T14:56:35Z</time>
      </trkpt>
      <trkpt lat="44.32458" lon="3.7037">
        <ele>1105.090576</ele>
        <time>2010-01-02T14:57:09Z</time>
      </trkpt>
      <trkpt lat="44.32437" lon="3.70398">
        <ele>1104.529541</ele>
        <time>2010-01-02T14:57:21Z</time>
      </trkpt>
      <trkpt lat="44.32427" lon="3.70399">
        <ele>1100.565796</ele>
        <time>2010-01-02T14:57:25Z</time>
      </trkpt>
      <trkpt lat="44.32417" lon="3.70391">
        <ele>1094.200684</ele>
        <time>2010-01-02T14:57:29Z</time>
      </trkpt>
      <trkpt lat="44.32417" lon="3.70367">
        <ele>1087.829102</ele>
        <time>2010-01-02T14:57:36Z</time>
      </trkpt>
      <trkpt lat="44.32432" lon="3.70289">
        <ele>1084.246094</ele>
        <time>2010-01-02T14:57:59Z</time>
      </trkpt>
      <trkpt lat="44.32436" lon="3.70216">
        <ele>1081.164429</ele>
        <time>2010-01-02T14:58:20Z</time>
      </trkpt>
      <trkpt lat="44.32447" lon="3.7011">
        <ele>1074.796753</ele>
        <time>2010-01-02T14:58:51Z</time>
      </trkpt>
      <trkpt lat="44.32476" lon="3.70009">
        <ele>1073.184082</ele>
        <time>2010-01-02T14:59:22Z</time>
      </trkpt>
      <trkpt lat="44.32524" lon="3.69891">
        <ele>1076.116089</ele>
        <time>2010-01-02T15:00:01Z</time>
      </trkpt>
      <trkpt lat="44.32648" lon="3.69672">
        <ele>1072.946289</ele>
        <time>2010-01-02T15:01:21Z</time>
      </trkpt>
      <trkpt lat="44.32702" lon="3.69583">
        <ele>1069.966919</ele>
        <time>2010-01-02T15:01:54Z</time>
      </trkpt>
      <trkpt lat="44.32716" lon="3.69554">
        <ele>1070.539307</ele>
        <time>2010-01-02T15:02:04Z</time>
      </trkpt>
      <trkpt lat="44.32722" lon="3.69527">
        <ele>1070.581177</ele>
        <time>2010-01-02T15:02:12Z</time>
      </trkpt>
      <trkpt lat="44.32726" lon="3.69493">
        <ele>1070.978027</ele>
        <time>2010-01-02T15:02:22Z</time>
      </trkpt>
      <trkpt lat="44.32726" lon="3.69471">
        <ele>1071.696899</ele>
        <time>2010-01-02T15:02:29Z</time>
      </trkpt>
      <trkpt lat="44.32724" lon="3.69434">
        <ele>1073.670044</ele>
        <time>2010-01-02T15:02:39Z</time>
      </trkpt>
      <trkpt lat="44.32731" lon="3.694">
        <ele>1072.917847</ele>
        <time>2010-01-02T15:02:49Z</time>
      </trkpt>
      <trkpt lat="44.32773" lon="3.69293">
        <ele>1068.479126</ele>
        <time>2010-01-02T15:03:24Z</time>
      </trkpt>
      <trkpt lat="44.32791" lon="3.69231">
        <ele>1067.511719</ele>
        <time>2010-01-02T15:03:43Z</time>
      </trkpt>
      <trkpt lat="44.32791" lon="3.69173">
        <ele>1072.205688</ele>
        <time>2010-01-02T15:04:00Z</time>
      </trkpt>
      <trkpt lat="44.32789" lon="3.69135">
        <ele>1073.138306</ele>
        <time>2010-01-02T15:04:11Z</time>
      </trkpt>
      <trkpt lat="44.32802" lon="3.69077">
        <ele>1073.71521</ele>
        <time>2010-01-02T15:04:28Z</time>
      </trkpt>
      <trkpt lat="44.32844" lon="3.69008">
        <ele>1071.946045</ele>
        <time>2010-01-02T15:04:54Z</time>
      </trkpt>
      <trkpt lat="44.32901" lon="3.68852">
        <ele>1074.956055</ele>
        <time>2010-01-02T15:05:44Z</time>
      </trkpt>
      <trkpt lat="44.329" lon="3.68843">
        <ele>1076.111328</ele>
        <time>2010-01-02T15:05:47Z</time>
      </trkpt>
      <trkpt lat="44.32892" lon="3.68839">
        <ele>1079.767822</ele>
        <time>2010-01-02T15:05:50Z</time>
      </trkpt>
      <trkpt lat="44.3285" lon="3.68832">
        <ele>1091.61377</ele>
        <time>2010-01-02T15:06:07Z</time>
      </trkpt>
      <trkpt lat="44.32823" lon="3.68836">
        <ele>1097.33606</ele>
        <time>2010-01-02T15:06:18Z</time>
      </trkpt>
      <trkpt lat="44.32752" lon="3.68861">
        <ele>1107.449951</ele>
        <time>2010-01-02T15:06:48Z</time>
      </trkpt>
      <trkpt lat="44.32723" lon="3.68865">
        <ele>1105.604248</ele>
        <time>2010-01-02T15:06:59Z</time>
      </trkpt>
      <trkpt lat="44.32667" lon="3.68853">
        <ele>1096.338745</ele>
        <time>2010-01-02T15:07:22Z</time>
      </trkpt>
      <trkpt lat="44.32652" lon="3.68842">
        <ele>1093.009644</ele>
        <time>2010-01-02T15:07:29Z</time>
      </trkpt>
      <trkpt lat="44.32645" lon="3.68818">
        <ele>1088.173828</ele>
        <time>2010-01-02T15:07:36Z</time>
      </trkpt>
      <trkpt lat="44.32637" lon="3.68779">
        <ele>1083.054688</ele>
        <time>2010-01-02T15:07:48Z</time>
      </trkpt>
      <trkpt lat="44.32636" lon="3.6873">
        <ele>1078.229248</ele>
        <time>2010-01-02T15:08:02Z</time>
      </trkpt>
      <trkpt lat="44.32629" lon="3.68696">
        <ele>1077.454956</ele>
        <time>2010-01-02T15:08:12Z</time>
      </trkpt>
      <trkpt lat="44.32612" lon="3.68667">
        <ele>1080.758301</ele>
        <time>2010-01-02T15:08:23Z</time>
      </trkpt>
      <trkpt lat="44.32568" lon="3.68619">
        <ele>1082.671875</ele>
        <time>2010-01-02T15:08:45Z</time>
      </trkpt>
      <trkpt lat="44.32546" lon="3.68606">
        <ele>1082.061279</ele>
        <time>2010-01-02T15:08:54Z</time>
      </trkpt>
      <trkpt lat="44.32535" lon="3.6859">
        <ele>1081.105591</ele>
        <time>2010-01-02T15:09:01Z</time>
      </trkpt>
      <trkpt lat="44.32576" lon="3.68411">
        <ele>1069.657471</ele>
        <time>2010-01-02T15:09:55Z</time>
      </trkpt>
      <trkpt lat="44.3262" lon="3.68269">
        <ele>1063.303711</ele>
        <time>2010-01-02T15:10:39Z</time>
      </trkpt>
      <trkpt lat="44.32623" lon="3.68232">
        <ele>1064.10376</ele>
        <time>2010-01-02T15:10:50Z</time>
      </trkpt>
      <trkpt lat="44.32624" lon="3.67987">
        <ele>1064.875244</ele>
        <time>2010-01-02T15:12:00Z</time>
      </trkpt>
      <trkpt lat="44.32612" lon="3.67883">
        <ele>1064.033569</ele>
        <time>2010-01-02T15:12:30Z</time>
      </trkpt>
      <trkpt lat="44.32615" lon="3.67858">
        <ele>1061.387939</ele>
        <time>2010-01-02T15:12:37Z</time>
      </trkpt>
      <trkpt lat="44.32641" lon="3.67775">
        <ele>1052.704956</ele>
        <time>2010-01-02T15:13:03Z</time>
      </trkpt>
      <trkpt lat="44.32652" lon="3.67723">
        <ele>1050.97998</ele>
        <time>2010-01-02T15:13:19Z</time>
      </trkpt>
      <trkpt lat="44.32657" lon="3.67676">
        <ele>1051.844971</ele>
        <time>2010-01-02T15:13:32Z</time>
      </trkpt>
      <trkpt lat="44.32662" lon="3.67608">
        <ele>1050.012451</ele>
        <time>2010-01-02T15:13:52Z</time>
      </trkpt>
      <trkpt lat="44.32663" lon="3.67549">
        <ele>1047.716675</ele>
        <time>2010-01-02T15:14:09Z</time>
      </trkpt>
      <trkpt lat="44.3266" lon="3.6753">
        <ele>1049.020264</ele>
        <time>2010-01-02T15:14:14Z</time>
      </trkpt>
      <trkpt lat="44.3265" lon="3.67478">
        <ele>1052.69397</ele>
        <time>2010-01-02T15:14:30Z</time>
      </trkpt>
      <trkpt lat="44.32623" lon="3.67405">
        <ele>1056.800049</ele>
        <time>2010-01-02T15:14:53Z</time>
      </trkpt>
      <trkpt lat="44.32592" lon="3.67355">
        <ele>1059.512451</ele>
        <time>2010-01-02T15:15:12Z</time>
      </trkpt>
      <trkpt lat="44.32481" lon="3.67169">
        <ele>1044.417236</ele>
        <time>2010-01-02T15:16:22Z</time>
      </trkpt>
      <trkpt lat="44.32482" lon="3.67138">
        <ele>1042.523315</ele>
        <time>2010-01-02T15:16:31Z</time>
      </trkpt>
      <trkpt lat="44.32492" lon="3.671">
        <ele>1039.011108</ele>
        <time>2010-01-02T15:16:42Z</time>
      </trkpt>
      <trkpt lat="44.32493" lon="3.67045">
        <ele>1038.85144</ele>
        <time>2010-01-02T15:16:58Z</time>
      </trkpt>
      <trkpt lat="44.32471" lon="3.67016">
        <ele>1041.165771</ele>
        <time>2010-01-02T15:17:10Z</time>
      </trkpt>
      <trkpt lat="44.3246" lon="3.66961">
        <ele>1040.127319</ele>
        <time>2010-01-02T15:17:26Z</time>
      </trkpt>
      <trkpt lat="44.32483" lon="3.66832">
        <ele>1035.173218</ele>
        <time>2010-01-02T15:18:04Z</time>
      </trkpt>
      <trkpt lat="44.32484" lon="3.66735">
        <ele>1036.05603</ele>
        <time>2010-01-02T15:18:32Z</time>
      </trkpt>
      <trkpt lat="44.32506" lon="3.66663">
        <ele>1031.373047</ele>
        <time>2010-01-02T15:18:55Z</time>
      </trkpt>
      <trkpt lat="44.32533" lon="3.66597">
        <ele>1031.687378</ele>
        <time>2010-01-02T15:19:16Z</time>
      </trkpt>
      <trkpt lat="44.32591" lon="3.66483">
        <ele>1033.118408</ele>
        <time>2010-01-02T15:19:56Z</time>
      </trkpt>
      <trkpt lat="44.32654" lon="3.66384">
        <ele>1031.998657</ele>
        <time>2010-01-02T15:20:34Z</time>
      </trkpt>
      <trkpt lat="44.32677" lon="3.66342">
        <ele>1033.809937</ele>
        <time>2010-01-02T15:20:50Z</time>
      </trkpt>
      <trkpt lat="44.32716" lon="3.66319">
        <ele>1034.589478</ele>
        <time>2010-01-02T15:21:06Z</time>
      </trkpt>
      <trkpt lat="44.32758" lon="3.66314">
        <ele>1028.421753</ele>
        <time>2010-01-02T15:21:23Z</time>
      </trkpt>
      <trkpt lat="44.32782" lon="3.66315">
        <ele>1021.503784</ele>
        <time>2010-01-02T15:21:33Z</time>
      </trkpt>
      <trkpt lat="44.32796" lon="3.66296">
        <ele>1019.001648</ele>
        <time>2010-01-02T15:21:41Z</time>
      </trkpt>
      <trkpt lat="44.32809" lon="3.6627">
        <ele>1014.684082</ele>
        <time>2010-01-02T15:21:50Z</time>
      </trkpt>
      <trkpt lat="44.32811" lon="3.66248">
        <ele>1014.395508</ele>
        <time>2010-01-02T15:21:56Z</time>
      </trkpt>
      <trkpt lat="44.32819" lon="3.66213">
        <ele>1010.220825</ele>
        <time>2010-01-02T15:22:07Z</time>
      </trkpt>
      <trkpt lat="44.32811" lon="3.66193">
        <ele>1017.103882</ele>
        <time>2010-01-02T15:22:13Z</time>
      </trkpt>
      <trkpt lat="44.32808" lon="3.66101">
        <ele>1015.959106</ele>
        <time>2010-01-02T15:22:40Z</time>
      </trkpt>
      <trkpt lat="44.32815" lon="3.6608">
        <ele>1014.794312</ele>
        <time>2010-01-02T15:22:46Z</time>
      </trkpt>
      <trkpt lat="44.32834" lon="3.66055">
        <ele>1006.532715</ele>
        <time>2010-01-02T15:22:57Z</time>
      </trkpt>
      <trkpt lat="44.32852" lon="3.66025">
        <ele>1004.145142</ele>
        <time>2010-01-02T15:23:08Z</time>
      </trkpt>
      <trkpt lat="44.32864" lon="3.65989">
        <ele>1008.583008</ele>
        <time>2010-01-02T15:23:19Z</time>
      </trkpt>
      <trkpt lat="44.32884" lon="3.65943">
        <ele>1010.26593</ele>
        <time>2010-01-02T15:23:35Z</time>
      </trkpt>
      <trkpt lat="44.32902" lon="3.65889">
        <ele>1011.774231</ele>
        <time>2010-01-02T15:23:52Z</time>
      </trkpt>
      <trkpt lat="44.32902" lon="3.65871">
        <ele>1014.880127</ele>
        <time>2010-01-02T15:23:57Z</time>
      </trkpt>
      <trkpt lat="44.32894" lon="3.65832">
        <ele>1022.002808</ele>
        <time>2010-01-02T15:24:09Z</time>
      </trkpt>
      <trkpt lat="44.32898" lon="3.65812">
        <ele>1019.416504</ele>
        <time>2010-01-02T15:24:15Z</time>
      </trkpt>
      <trkpt lat="44.32917" lon="3.65783">
        <ele>1010.343689</ele>
        <time>2010-01-02T15:24:26Z</time>
      </trkpt>
      <trkpt lat="44.32922" lon="3.65761">
        <ele>1010.886292</ele>
        <time>2010-01-02T15:24:32Z</time>
      </trkpt>
      <trkpt lat="44.32922" lon="3.6574">
        <ele>1014.437744</ele>
        <time>2010-01-02T15:24:38Z</time>
      </trkpt>
      <trkpt lat="44.32934" lon="3.65707">
        <ele>1012.32135</ele>
        <time>2010-01-02T15:24:49Z</time>
      </trkpt>
      <trkpt lat="44.32935" lon="3.65674">
        <ele>1017.060913</ele>
        <time>2010-01-02T15:24:58Z</time>
      </trkpt>
      <trkpt lat="44.32905" lon="3.65583">
        <ele>1028.145142</ele>
        <time>2010-01-02T15:25:27Z</time>
      </trkpt>
      <trkpt lat="44.32878" lon="3.6555">
        <ele>1028.623535</ele>
        <time>2010-01-02T15:25:41Z</time>
      </trkpt>
      <trkpt lat="44.32851" lon="3.6544">
        <ele>1030.944946</ele>
        <time>2010-01-02T15:26:15Z</time>
      </trkpt>
      <trkpt lat="44.32831" lon="3.65373">
        <ele>1025.944458</ele>
        <time>2010-01-02T15:26:36Z</time>
      </trkpt>
      <trkpt lat="44.32834" lon="3.65348">
        <ele>1027.201416</ele>
        <time>2010-01-02T15:26:43Z</time>
      </trkpt>
      <trkpt lat="44.32859" lon="3.65316">
        <ele>1030.268555</ele>
        <time>2010-01-02T15:26:56Z</time>
      </trkpt>
      <trkpt lat="44.32927" lon="3.65258">
        <ele>1034.611572</ele>
        <time>2010-01-02T15:27:28Z</time>
      </trkpt>
      <trkpt lat="44.32967" lon="3.65204">
        <ele>1030.909912</ele>
        <time>2010-01-02T15:27:51Z</time>
      </trkpt>
      <trkpt lat="44.32985" lon="3.65175">
        <ele>1028.457886</ele>
        <time>2010-01-02T15:28:02Z</time>
      </trkpt>
      <trkpt lat="44.32995" lon="3.65148">
        <ele>1027.124634</ele>
        <time>2010-01-02T15:28:10Z</time>
      </trkpt>
      <trkpt lat="44.3299" lon="3.65105">
        <ele>1016.024109</ele>
        <time>2010-01-02T15:28:23Z</time>
      </trkpt>
      <trkpt lat="44.32989" lon="3.65077">
        <ele>1015.038269</ele>
        <time>2010-01-02T15:28:31Z</time>
      </trkpt>
      <trkpt lat="44.32984" lon="3.6505">
        <ele>1011.549377</ele>
        <time>2010-01-02T15:28:39Z</time>
      </trkpt>
      <trkpt lat="44.32894" lon="3.64961">
        <ele>988.459961</ele>
        <time>2010-01-02T15:29:23Z</time>
      </trkpt>
      <trkpt lat="44.32867" lon="3.64902">
        <ele>993.643494</ele>
        <time>2010-01-02T15:29:43Z</time>
      </trkpt>
      <trkpt lat="44.32862" lon="3.6487">
        <ele>996.199951</ele>
        <time>2010-01-02T15:29:52Z</time>
      </trkpt>
      <trkpt lat="44.32863" lon="3.64807">
        <ele>997.203003</ele>
        <time>2010-01-02T15:30:10Z</time>
      </trkpt>
      <trkpt lat="44.32868" lon="3.64774">
        <ele>997.334656</ele>
        <time>2010-01-02T15:30:20Z</time>
      </trkpt>
      <trkpt lat="44.32884" lon="3.64711">
        <ele>996.445984</ele>
        <time>2010-01-02T15:30:39Z</time>
      </trkpt>
      <trkpt lat="44.32957" lon="3.64622">
        <ele>989.260132</ele>
        <time>2010-01-02T15:31:18Z</time>
      </trkpt>
      <trkpt lat="44.32976" lon="3.64586">
        <ele>984.408264</ele>
        <time>2010-01-02T15:31:31Z</time>
      </trkpt>
      <trkpt lat="44.32984" lon="3.64539">
        <ele>978.756226</ele>
        <time>2010-01-02T15:31:45Z</time>
      </trkpt>
      <trkpt lat="44.32987" lon="3.64495">
        <ele>977.803772</ele>
        <time>2010-01-02T15:31:57Z</time>
      </trkpt>
      <trkpt lat="44.32969" lon="3.64379">
        <ele>967.922729</ele>
        <time>2010-01-02T15:32:31Z</time>
      </trkpt>
      <trkpt lat="44.32959" lon="3.64334">
        <ele>959.11554</ele>
        <time>2010-01-02T15:32:45Z</time>
      </trkpt>
      <trkpt lat="44.32939" lon="3.64279">
        <ele>949.029663</ele>
        <time>2010-01-02T15:33:02Z</time>
      </trkpt>
      <trkpt lat="44.32928" lon="3.64269">
        <ele>947.038147</ele>
        <time>2010-01-02T15:33:08Z</time>
      </trkpt>
      <trkpt lat="44.32929" lon="3.64262">
        <ele>946.624023</ele>
        <time>2010-01-02T15:33:10Z</time>
      </trkpt>
      <trkpt lat="44.32915" lon="3.64228">
        <ele>944.841492</ele>
        <time>2010-01-02T15:33:21Z</time>
      </trkpt>
      <trkpt lat="44.32909" lon="3.64021">
        <ele>935.192444</ele>
        <time>2010-01-02T15:34:20Z</time>
      </trkpt>
      <trkpt lat="44.32909" lon="3.6388">
        <ele>924.767029</ele>
        <time>2010-01-02T15:35:01Z</time>
      </trkpt>
      <trkpt lat="44.32913" lon="3.63847">
        <ele>919.880005</ele>
        <time>2010-01-02T15:35:10Z</time>
      </trkpt>
      <trkpt lat="44.32921" lon="3.638">
        <ele>915.919983</ele>
        <time>2010-01-02T15:35:24Z</time>
      </trkpt>
      <trkpt lat="44.3294" lon="3.63738">
        <ele>911.911499</ele>
        <time>2010-01-02T15:35:43Z</time>
      </trkpt>
      <trkpt lat="44.3296" lon="3.63702">
        <ele>906.279785</ele>
        <time>2010-01-02T15:35:56Z</time>
      </trkpt>
      <trkpt lat="44.32972" lon="3.63671">
        <ele>905.686768</ele>
        <time>2010-01-02T15:36:06Z</time>
      </trkpt>
      <trkpt lat="44.32974" lon="3.63642">
        <ele>905.895569</ele>
        <time>2010-01-02T15:36:15Z</time>
      </trkpt>
      <trkpt lat="44.32969" lon="3.6363">
        <ele>907.517029</ele>
        <time>2010-01-02T15:36:19Z</time>
      </trkpt>
      <trkpt lat="44.3296" lon="3.63623">
        <ele>909.992188</ele>
        <time>2010-01-02T15:36:23Z</time>
      </trkpt>
      <trkpt lat="44.32922" lon="3.63606">
        <ele>918.205688</ele>
        <time>2010-01-02T15:36:39Z</time>
      </trkpt>
      <trkpt lat="44.32914" lon="3.63598">
        <ele>918.716309</ele>
        <time>2010-01-02T15:36:43Z</time>
      </trkpt>
      <trkpt lat="44.32888" lon="3.6355">
        <ele>913.593384</ele>
        <time>2010-01-02T15:37:00Z</time>
      </trkpt>
      <trkpt lat="44.32866" lon="3.63484">
        <ele>904.435913</ele>
        <time>2010-01-02T15:37:21Z</time>
      </trkpt>
      <trkpt lat="44.3287" lon="3.6345">
        <ele>898.705688</ele>
        <time>2010-01-02T15:37:31Z</time>
      </trkpt>
      <trkpt lat="44.32883" lon="3.63352">
        <ele>886.21405</ele>
        <time>2010-01-02T15:37:59Z</time>
      </trkpt>
      <trkpt lat="44.32892" lon="3.63308">
        <ele>884.464722</ele>
        <time>2010-01-02T15:38:12Z</time>
      </trkpt>
      <trkpt lat="44.32904" lon="3.63279">
        <ele>881.228882</ele>
        <time>2010-01-02T15:38:22Z</time>
      </trkpt>
      <trkpt lat="44.32956" lon="3.63189">
        <ele>875.011108</ele>
        <time>2010-01-02T15:38:55Z</time>
      </trkpt>
      <trkpt lat="44.32979" lon="3.631">
        <ele>871.357544</ele>
        <time>2010-01-02T15:39:22Z</time>
      </trkpt>
      <trkpt lat="44.32982" lon="3.63058">
        <ele>874.595825</ele>
        <time>2010-01-02T15:39:34Z</time>
      </trkpt>
      <trkpt lat="44.32996" lon="3.63026">
        <ele>873.569336</ele>
        <time>2010-01-02T15:39:45Z</time>
      </trkpt>
      <trkpt lat="44.33022" lon="3.63">
        <ele>871.628296</ele>
        <time>2010-01-02T15:39:58Z</time>
      </trkpt>
      <trkpt lat="44.33048" lon="3.62981">
        <ele>870.048096</ele>
        <time>2010-01-02T15:40:10Z</time>
      </trkpt>
      <trkpt lat="44.33069" lon="3.62979">
        <ele>866.610107</ele>
        <time>2010-01-02T15:40:18Z</time>
      </trkpt>
      <trkpt lat="44.33089" lon="3.62984">
        <ele>861.190308</ele>
        <time>2010-01-02T15:40:26Z</time>
      </trkpt>
      <trkpt lat="44.33111" lon="3.62971">
        <ele>860.376587</ele>
        <time>2010-01-02T15:40:36Z</time>
      </trkpt>
      <trkpt lat="44.33126" lon="3.62945">
        <ele>861.549011</ele>
        <time>2010-01-02T15:40:45Z</time>
      </trkpt>
      <trkpt lat="44.33128" lon="3.62928">
        <ele>863.662476</ele>
        <time>2010-01-02T15:40:50Z</time>
      </trkpt>
      <trkpt lat="44.33128" lon="3.62905">
        <ele>864.500916</ele>
        <time>2010-01-02T15:40:57Z</time>
      </trkpt>
      <trkpt lat="44.33116" lon="3.62858">
        <ele>867.774597</ele>
        <time>2010-01-02T15:41:11Z</time>
      </trkpt>
      <trkpt lat="44.33103" lon="3.62819">
        <ele>867.032104</ele>
        <time>2010-01-02T15:41:23Z</time>
      </trkpt>
      <trkpt lat="44.33092" lon="3.62783">
        <ele>865.979614</ele>
        <time>2010-01-02T15:41:35Z</time>
      </trkpt>
      <trkpt lat="44.33085" lon="3.62743">
        <ele>861.529236</ele>
        <time>2010-01-02T15:41:46Z</time>
      </trkpt>
      <trkpt lat="44.33078" lon="3.62718">
        <ele>861.963867</ele>
        <time>2010-01-02T15:41:54Z</time>
      </trkpt>
      <trkpt lat="44.33077" lon="3.62687">
        <ele>859.435547</ele>
        <time>2010-01-02T15:42:03Z</time>
      </trkpt>
      <trkpt lat="44.33075" lon="3.6268">
        <ele>859.940918</ele>
        <time>2010-01-02T15:42:05Z</time>
      </trkpt>
      <trkpt lat="44.33092" lon="3.62647">
        <ele>850.058044</ele>
        <time>2010-01-02T15:42:17Z</time>
      </trkpt>
      <trkpt lat="44.33104" lon="3.62589">
        <ele>848.276978</ele>
        <time>2010-01-02T15:42:34Z</time>
      </trkpt>
      <trkpt lat="44.3311" lon="3.62549">
        <ele>849.961426</ele>
        <time>2010-01-02T15:42:46Z</time>
      </trkpt>
      <trkpt lat="44.33133" lon="3.62518">
        <ele>845.893738</ele>
        <time>2010-01-02T15:42:59Z</time>
      </trkpt>
      <trkpt lat="44.33167" lon="3.62474">
        <ele>844.493774</ele>
        <time>2010-01-02T15:43:17Z</time>
      </trkpt>
      <trkpt lat="44.33173" lon="3.62454">
        <ele>849.969299</ele>
        <time>2010-01-02T15:43:23Z</time>
      </trkpt>
      <trkpt lat="44.33178" lon="3.62444">
        <ele>852.179749</ele>
        <time>2010-01-02T15:43:27Z</time>
      </trkpt>
      <trkpt lat="44.33195" lon="3.62433">
        <ele>855.465088</ele>
        <time>2010-01-02T15:43:34Z</time>
      </trkpt>
      <trkpt lat="44.33229" lon="3.62437">
        <ele>854.719666</ele>
        <time>2010-01-02T15:43:48Z</time>
      </trkpt>
      <trkpt lat="44.33302" lon="3.6247">
        <ele>848.011414</ele>
        <time>2010-01-02T15:44:19Z</time>
      </trkpt>
      <trkpt lat="44.33322" lon="3.62474">
        <ele>845.818359</ele>
        <time>2010-01-02T15:44:27Z</time>
      </trkpt>
      <trkpt lat="44.33344" lon="3.62473">
        <ele>844.531372</ele>
        <time>2010-01-02T15:44:36Z</time>
      </trkpt>
      <trkpt lat="44.33373" lon="3.62464">
        <ele>843.735779</ele>
        <time>2010-01-02T15:44:48Z</time>
      </trkpt>
      <trkpt lat="44.33412" lon="3.62438">
        <ele>842.475891</ele>
        <time>2010-01-02T15:45:05Z</time>
      </trkpt>
      <trkpt lat="44.33482" lon="3.62385">
        <ele>838.902222</ele>
        <time>2010-01-02T15:45:37Z</time>
      </trkpt>
      <trkpt lat="44.33499" lon="3.62363">
        <ele>841.022522</ele>
        <time>2010-01-02T15:45:46Z</time>
      </trkpt>
      <trkpt lat="44.33507" lon="3.6236">
        <ele>841.25</ele>
        <time>2010-01-02T15:45:49Z</time>
      </trkpt>
      <trkpt lat="44.33502" lon="3.62343">
        <ele>841.781189</ele>
        <time>2010-01-02T15:45:55Z</time>
      </trkpt>
      <trkpt lat="44.33473" lon="3.62295">
        <ele>849.96405</ele>
        <time>2010-01-02T15:46:13Z</time>
      </trkpt>
      <trkpt lat="44.33417" lon="3.62209">
        <ele>853.410034</ele>
        <time>2010-01-02T15:46:46Z</time>
      </trkpt>
      <trkpt lat="44.33317" lon="3.62094">
        <ele>864.841614</ele>
        <time>2010-01-02T15:47:38Z</time>
      </trkpt>
      <trkpt lat="44.3328" lon="3.62017">
        <ele>861.651367</ele>
        <time>2010-01-02T15:48:04Z</time>
      </trkpt>
      <trkpt lat="44.3327" lon="3.62007">
        <ele>865.687988</ele>
        <time>2010-01-02T15:48:09Z</time>
      </trkpt>
      <trkpt lat="44.33266" lon="3.61993">
        <ele>865.441711</ele>
        <time>2010-01-02T15:48:13Z</time>
      </trkpt>
      <trkpt lat="44.3327" lon="3.61979">
        <ele>861.244629</ele>
        <time>2010-01-02T15:48:18Z</time>
      </trkpt>
      <trkpt lat="44.33282" lon="3.6197">
        <ele>855.486267</ele>
        <time>2010-01-02T15:48:23Z</time>
      </trkpt>
      <trkpt lat="44.33303" lon="3.61964">
        <ele>844.526001</ele>
        <time>2010-01-02T15:48:32Z</time>
      </trkpt>
      <trkpt lat="44.33377" lon="3.61864">
        <ele>836.018555</ele>
        <time>2010-01-02T15:49:13Z</time>
      </trkpt>
      <trkpt lat="44.33386" lon="3.61848">
        <ele>835.592468</ele>
        <time>2010-01-02T15:49:19Z</time>
      </trkpt>
      <trkpt lat="44.3339" lon="3.6182">
        <ele>839.14447</ele>
        <time>2010-01-02T15:49:27Z</time>
      </trkpt>
      <trkpt lat="44.33388" lon="3.61753">
        <ele>843.879944</ele>
        <time>2010-01-02T15:49:46Z</time>
      </trkpt>
      <trkpt lat="44.33384" lon="3.61736">
        <ele>845.830383</ele>
        <time>2010-01-02T15:49:51Z</time>
      </trkpt>
      <trkpt lat="44.33386" lon="3.61716">
        <ele>844.943054</ele>
        <time>2010-01-02T15:49:57Z</time>
      </trkpt>
      <trkpt lat="44.33393" lon="3.61711">
        <ele>841.481384</ele>
        <time>2010-01-02T15:50:00Z</time>
      </trkpt>
      <trkpt lat="44.33416" lon="3.61677">
        <ele>831.810791</ele>
        <time>2010-01-02T15:50:14Z</time>
      </trkpt>
      <trkpt lat="44.33439" lon="3.61656">
        <ele>829.153748</ele>
        <time>2010-01-02T15:50:25Z</time>
      </trkpt>
      <trkpt lat="44.33502" lon="3.61606">
        <ele>824.982178</ele>
        <time>2010-01-02T15:50:54Z</time>
      </trkpt>
      <trkpt lat="44.33525" lon="3.61581">
        <ele>826.961243</ele>
        <time>2010-01-02T15:51:05Z</time>
      </trkpt>
      <trkpt lat="44.33605" lon="3.61532">
        <ele>823.140015</ele>
        <time>2010-01-02T15:51:40Z</time>
      </trkpt>
      <trkpt lat="44.33679" lon="3.61503">
        <ele>823.19751</ele>
        <time>2010-01-02T15:52:11Z</time>
      </trkpt>
      <trkpt lat="44.33725" lon="3.61499">
        <ele>824.364197</ele>
        <time>2010-01-02T15:52:29Z</time>
      </trkpt>
      <trkpt lat="44.3377" lon="3.61506">
        <ele>822.513123</ele>
        <time>2010-01-02T15:52:48Z</time>
      </trkpt>
      <trkpt lat="44.33796" lon="3.61526">
        <ele>818.787964</ele>
        <time>2010-01-02T15:52:59Z</time>
      </trkpt>
      <trkpt lat="44.33816" lon="3.6153">
        <ele>817.97229</ele>
        <time>2010-01-02T15:53:08Z</time>
      </trkpt>
      <trkpt lat="44.33827" lon="3.61529">
        <ele>817.522522</ele>
        <time>2010-01-02T15:53:12Z</time>
      </trkpt>
      <trkpt lat="44.33836" lon="3.61505">
        <ele>819.26001</ele>
        <time>2010-01-02T15:53:20Z</time>
      </trkpt>
      <trkpt lat="44.33835" lon="3.61482">
        <ele>820.161438</ele>
        <time>2010-01-02T15:53:26Z</time>
      </trkpt>
      <trkpt lat="44.3383" lon="3.61455">
        <ele>819.783569</ele>
        <time>2010-01-02T15:53:34Z</time>
      </trkpt>
      <trkpt lat="44.33819" lon="3.61431">
        <ele>820.74884</ele>
        <time>2010-01-02T15:53:42Z</time>
      </trkpt>
      <trkpt lat="44.33799" lon="3.61407">
        <ele>821.352905</ele>
        <time>2010-01-02T15:53:53Z</time>
      </trkpt>
      <trkpt lat="44.33782" lon="3.61393">
        <ele>822.97937</ele>
        <time>2010-01-02T15:54:01Z</time>
      </trkpt>
      <trkpt lat="44.33763" lon="3.61369">
        <ele>826.024231</ele>
        <time>2010-01-02T15:54:11Z</time>
      </trkpt>
      <trkpt lat="44.33731" lon="3.61315">
        <ele>825.814819</ele>
        <time>2010-01-02T15:54:31Z</time>
      </trkpt>
      <trkpt lat="44.33725" lon="3.61295">
        <ele>823.818298</ele>
        <time>2010-01-02T15:54:37Z</time>
      </trkpt>
      <trkpt lat="44.33703" lon="3.61272">
        <ele>826.068115</ele>
        <time>2010-01-02T15:54:48Z</time>
      </trkpt>
      <trkpt lat="44.33667" lon="3.61246">
        <ele>831.683594</ele>
        <time>2010-01-02T15:55:05Z</time>
      </trkpt>
      <trkpt lat="44.33593" lon="3.61215">
        <ele>837.064819</ele>
        <time>2010-01-02T15:55:36Z</time>
      </trkpt>
      <trkpt lat="44.33522" lon="3.612">
        <ele>835.646362</ele>
        <time>2010-01-02T15:56:04Z</time>
      </trkpt>
      <trkpt lat="44.33482" lon="3.61192">
        <ele>833.211182</ele>
        <time>2010-01-02T15:56:21Z</time>
      </trkpt>
      <trkpt lat="44.33445" lon="3.61194">
        <ele>836.111328</ele>
        <time>2010-01-02T15:56:35Z</time>
      </trkpt>
      <trkpt lat="44.3342" lon="3.61187">
        <ele>833.35907</ele>
        <time>2010-01-02T15:56:46Z</time>
      </trkpt>
      <trkpt lat="44.33399" lon="3.61174">
        <ele>827.519104</ele>
        <time>2010-01-02T15:56:55Z</time>
      </trkpt>
      <trkpt lat="44.33334" lon="3.61147">
        <ele>823.738281</ele>
        <time>2010-01-02T15:57:22Z</time>
      </trkpt>
      <trkpt lat="44.33318" lon="3.61147">
        <ele>827.09375</ele>
        <time>2010-01-02T15:57:28Z</time>
      </trkpt>
      <trkpt lat="44.33307" lon="3.6114">
        <ele>827.185608</ele>
        <time>2010-01-02T15:57:33Z</time>
      </trkpt>
      <trkpt lat="44.33303" lon="3.61127">
        <ele>823.866699</ele>
        <time>2010-01-02T15:57:37Z</time>
      </trkpt>
      <trkpt lat="44.33314" lon="3.61098">
        <ele>813.02594</ele>
        <time>2010-01-02T15:57:47Z</time>
      </trkpt>
      <trkpt lat="44.33321" lon="3.61056">
        <ele>804.396851</ele>
        <time>2010-01-02T15:57:59Z</time>
      </trkpt>
      <trkpt lat="44.3333" lon="3.60968">
        <ele>804.651001</ele>
        <time>2010-01-02T15:58:24Z</time>
      </trkpt>
      <trkpt lat="44.3333" lon="3.60907">
        <ele>806.821655</ele>
        <time>2010-01-02T15:58:42Z</time>
      </trkpt>
      <trkpt lat="44.33353" lon="3.60792">
        <ele>796.965942</ele>
        <time>2010-01-02T15:59:16Z</time>
      </trkpt>
      <trkpt lat="44.33376" lon="3.60713">
        <ele>789.133301</ele>
        <time>2010-01-02T15:59:40Z</time>
      </trkpt>
      <trkpt lat="44.33396" lon="3.60663">
        <ele>784.618286</ele>
        <time>2010-01-02T15:59:57Z</time>
      </trkpt>
      <trkpt lat="44.33411" lon="3.60637">
        <ele>780.039551</ele>
        <time>2010-01-02T16:00:06Z</time>
      </trkpt>
      <trkpt lat="44.33412" lon="3.60603">
        <ele>781.959534</ele>
        <time>2010-01-02T16:00:16Z</time>
      </trkpt>
      <trkpt lat="44.33405" lon="3.60528">
        <ele>781.671936</ele>
        <time>2010-01-02T16:00:38Z</time>
      </trkpt>
      <trkpt lat="44.33394" lon="3.60475">
        <ele>777.030457</ele>
        <time>2010-01-02T16:00:54Z</time>
      </trkpt>
      <trkpt lat="44.33384" lon="3.6044">
        <ele>774.421326</ele>
        <time>2010-01-02T16:01:04Z</time>
      </trkpt>
      <trkpt lat="44.33388" lon="3.60415">
        <ele>766.811584</ele>
        <time>2010-01-02T16:01:12Z</time>
      </trkpt>
      <trkpt lat="44.33396" lon="3.60399">
        <ele>763.07428</ele>
        <time>2010-01-02T16:01:17Z</time>
      </trkpt>
      <trkpt lat="44.33424" lon="3.60352">
        <ele>753.161133</ele>
        <time>2010-01-02T16:01:35Z</time>
      </trkpt>
      <trkpt lat="44.33447" lon="3.60311">
        <ele>750.026917</ele>
        <time>2010-01-02T16:01:50Z</time>
      </trkpt>
      <trkpt lat="44.33483" lon="3.60278">
        <ele>739.002197</ele>
        <time>2010-01-02T16:02:07Z</time>
      </trkpt>
      <trkpt lat="44.3358" lon="3.60165">
        <ele>729.900879</ele>
        <time>2010-01-02T16:02:58Z</time>
      </trkpt>
      <trkpt lat="44.33599" lon="3.60158">
        <ele>725.287354</ele>
        <time>2010-01-02T16:03:05Z</time>
      </trkpt>
      <trkpt lat="44.3361" lon="3.60163">
        <ele>720.057617</ele>
        <time>2010-01-02T16:03:10Z</time>
      </trkpt>
      <trkpt lat="44.33625" lon="3.60176">
        <ele>711.262512</ele>
        <time>2010-01-02T16:03:17Z</time>
      </trkpt>
      <trkpt lat="44.33637" lon="3.60176">
        <ele>707.047485</ele>
        <time>2010-01-02T16:03:22Z</time>
      </trkpt>
      <trkpt lat="44.33686" lon="3.60118">
        <ele>712.140747</ele>
        <time>2010-01-02T16:03:48Z</time>
      </trkpt>
      <trkpt lat="44.337" lon="3.6011">
        <ele>712.390015</ele>
        <time>2010-01-02T16:03:54Z</time>
      </trkpt>
      <trkpt lat="44.33719" lon="3.60117">
        <ele>708.715881</ele>
        <time>2010-01-02T16:04:02Z</time>
      </trkpt>
      <trkpt lat="44.33766" lon="3.60147">
        <ele>695.209717</ele>
        <time>2010-01-02T16:04:22Z</time>
      </trkpt>
      <trkpt lat="44.33799" lon="3.6016">
        <ele>687.948486</ele>
        <time>2010-01-02T16:04:36Z</time>
      </trkpt>
      <trkpt lat="44.33828" lon="3.60164">
        <ele>683.309448</ele>
        <time>2010-01-02T16:04:48Z</time>
      </trkpt>
      <trkpt lat="44.33851" lon="3.60154">
        <ele>680.355164</ele>
        <time>2010-01-02T16:04:57Z</time>
      </trkpt>
      <trkpt lat="44.33864" lon="3.60136">
        <ele>679.633423</ele>
        <time>2010-01-02T16:05:05Z</time>
      </trkpt>
      <trkpt lat="44.33879" lon="3.60096">
        <ele>679.948608</ele>
        <time>2010-01-02T16:05:18Z</time>
      </trkpt>
      <trkpt lat="44.33927" lon="3.60014">
        <ele>671.260376</ele>
        <time>2010-01-02T16:05:48Z</time>
      </trkpt>
      <trkpt lat="44.33962" lon="3.59961">
        <ele>671.228882</ele>
        <time>2010-01-02T16:06:09Z</time>
      </trkpt>
      <trkpt lat="44.33977" lon="3.5995">
        <ele>669.991333</ele>
        <time>2010-01-02T16:06:15Z</time>
      </trkpt>
      <trkpt lat="44.34001" lon="3.59946">
        <ele>665.626709</ele>
        <time>2010-01-02T16:06:25Z</time>
      </trkpt>
      <trkpt lat="44.34038" lon="3.59946">
        <ele>658.105042</ele>
        <time>2010-01-02T16:06:40Z</time>
      </trkpt>
      <trkpt lat="44.34072" lon="3.59933">
        <ele>655.898682</ele>
        <time>2010-01-02T16:06:54Z</time>
      </trkpt>
      <trkpt lat="44.34113" lon="3.59921">
        <ele>651.857483</ele>
        <time>2010-01-02T16:07:11Z</time>
      </trkpt>
      <trkpt lat="44.34231" lon="3.59926">
        <ele>626.505615</ele>
        <time>2010-01-02T16:07:58Z</time>
      </trkpt>
      <trkpt lat="44.34253" lon="3.59907">
        <ele>623.337463</ele>
        <time>2010-01-02T16:08:08Z</time>
      </trkpt>
      <trkpt lat="44.34267" lon="3.59892">
        <ele>621.355408</ele>
        <time>2010-01-02T16:08:15Z</time>
      </trkpt>
      <trkpt lat="44.34291" lon="3.59831">
        <ele>616.349731</ele>
        <time>2010-01-02T16:08:35Z</time>
      </trkpt>
      <trkpt lat="44.34297" lon="3.598">
        <ele>612.57489</ele>
        <time>2010-01-02T16:08:44Z</time>
      </trkpt>
      <trkpt lat="44.34306" lon="3.59691">
        <ele>600.726929</ele>
        <time>2010-01-02T16:09:16Z</time>
      </trkpt>
      <trkpt lat="44.34322" lon="3.59784">
        <ele>594.614258</ele>
        <time>2010-01-02T16:09:43Z</time>
      </trkpt>
      <trkpt lat="44.3433" lon="3.5982">
        <ele>591.322815</ele>
        <time>2010-01-02T16:09:54Z</time>
      </trkpt>
      <trkpt lat="44.3433" lon="3.59865">
        <ele>595.325012</ele>
        <time>2010-01-02T16:10:07Z</time>
      </trkpt>
      <trkpt lat="44.34341" lon="3.59942">
        <ele>587.413513</ele>
        <time>2010-01-02T16:10:29Z</time>
      </trkpt>
      <trkpt lat="44.34342" lon="3.59959">
        <ele>585.124939</ele>
        <time>2010-01-02T16:10:34Z</time>
      </trkpt>
      <trkpt lat="44.34335" lon="3.5998">
        <ele>586.420044</ele>
        <time>2010-01-02T16:10:41Z</time>
      </trkpt>
      <trkpt lat="44.34312" lon="3.6">
        <ele>590.705444</ele>
        <time>2010-01-02T16:10:52Z</time>
      </trkpt>
      <trkpt lat="44.34289" lon="3.6001">
        <ele>595.093628</ele>
        <time>2010-01-02T16:11:01Z</time>
      </trkpt>
      <trkpt lat="44.34246" lon="3.60056">
        <ele>592.098694</ele>
        <time>2010-01-02T16:11:23Z</time>
      </trkpt>
      <trkpt lat="44.34217" lon="3.60109">
        <ele>587.331238</ele>
        <time>2010-01-02T16:11:42Z</time>
      </trkpt>
      <trkpt lat="44.34192" lon="3.60145">
        <ele>585.240112</ele>
        <time>2010-01-02T16:11:57Z</time>
      </trkpt>
      <trkpt lat="44.34145" lon="3.60199">
        <ele>584.005371</ele>
        <time>2010-01-02T16:12:21Z</time>
      </trkpt>
      <trkpt lat="44.34098" lon="3.60297">
        <ele>581.414185</ele>
        <time>2010-01-02T16:12:55Z</time>
      </trkpt>
      <trkpt lat="44.34092" lon="3.60308">
        <ele>581.34967</ele>
        <time>2010-01-02T16:12:59Z</time>
      </trkpt>
      <trkpt lat="44.34097" lon="3.60395">
        <ele>579.76001</ele>
        <time>2010-01-02T16:13:24Z</time>
      </trkpt>
      <trkpt lat="44.34109" lon="3.60405">
        <ele>578.72229</ele>
        <time>2010-01-02T16:13:29Z</time>
      </trkpt>
      <trkpt lat="44.34132" lon="3.60405">
        <ele>576.946777</ele>
        <time>2010-01-02T16:13:38Z</time>
      </trkpt>
      <trkpt lat="44.34212" lon="3.60388">
        <ele>572.48999</ele>
        <time>2010-01-02T16:14:11Z</time>
      </trkpt>
      <trkpt lat="44.34343" lon="3.60357">
        <ele>566.817505</ele>
        <time>2010-01-02T16:15:04Z</time>
      </trkpt>
      <trkpt lat="44.34324" lon="3.60274">
        <ele>565.177673</ele>
        <time>2010-01-02T16:15:29Z</time>
      </trkpt>
      <trkpt lat="44.34321" lon="3.60249">
        <ele>564.724182</ele>
        <time>2010-01-02T16:15:36Z</time>
      </trkpt>
      <trkpt lat="44.34326" lon="3.60212">
        <ele>563.988586</ele>
        <time>2010-01-02T16:15:47Z</time>
      </trkpt>
      <trkpt lat="44.34361" lon="3.60213">
        <ele>561.311279</ele>
        <time>2010-01-02T16:16:01Z</time>
      </trkpt>
      <trkpt lat="44.34368" lon="3.60208">
        <ele>560.60321</ele>
        <time>2010-01-02T16:16:04Z</time>
      </trkpt>
      <trkpt lat="44.34373" lon="3.60186">
        <ele>559.494141</ele>
        <time>2010-01-02T16:16:11Z</time>
      </trkpt>
      <trkpt lat="44.34373" lon="3.60164">
        <ele>559.953796</ele>
        <time>2010-01-02T16:16:17Z</time>
      </trkpt>
      <trkpt lat="44.34413" lon="3.60125">
        <ele>556.173828</ele>
        <time>2010-01-02T16:16:37Z</time>
      </trkpt>
      <trkpt lat="44.34478" lon="3.6012">
        <ele>555.910339</ele>
        <time>2010-01-02T16:17:03Z</time>
      </trkpt>
      <trkpt lat="44.345" lon="3.6012">
        <ele>561.255127</ele>
        <time>2010-01-02T16:17:11Z</time>
      </trkpt>
      <trkpt lat="44.34474" lon="3.60005">
        <ele>559.986084</ele>
        <time>2010-01-02T16:17:46Z</time>
      </trkpt>
      <trkpt lat="44.34462" lon="3.59939">
        <ele>556.119934</ele>
        <time>2010-01-02T16:18:05Z</time>
      </trkpt>
      <trkpt lat="44.34479" lon="3.59808">
        <ele>550.418762</ele>
        <time>2010-01-02T16:18:44Z</time>
      </trkpt>
      <trkpt lat="44.34478" lon="3.59735">
        <ele>549.421265</ele>
        <time>2010-01-02T16:19:04Z</time>
      </trkpt>
      <trkpt lat="44.34473" lon="3.59686">
        <ele>549.121765</ele>
        <time>2010-01-02T16:19:19Z</time>
      </trkpt>
      <trkpt lat="44.34464" lon="3.59651">
        <ele>549.463623</ele>
        <time>2010-01-02T16:19:29Z</time>
      </trkpt>
      <trkpt lat="44.34465" lon="3.59593">
        <ele>548.12207</ele>
        <time>2010-01-02T16:19:46Z</time>
      </trkpt>
      <trkpt lat="44.34501" lon="3.59421">
        <ele>554.97998</ele>
        <time>2010-01-02T16:20:37Z</time>
      </trkpt>
      <trkpt lat="44.34517" lon="3.59372">
        <ele>554.705566</ele>
        <time>2010-01-02T16:20:53Z</time>
      </trkpt>
      <trkpt lat="44.34562" lon="3.59228">
        <ele>553.142822</ele>
        <time>2010-01-02T16:21:38Z</time>
      </trkpt>
      <trkpt lat="44.34564" lon="3.59215">
        <ele>552.776855</ele>
        <time>2010-01-02T16:21:41Z</time>
      </trkpt>
      <trkpt lat="44.34572" lon="3.59199">
        <ele>552.445435</ele>
        <time>2010-01-02T16:21:47Z</time>
      </trkpt>
      <trkpt lat="44.34606" lon="3.59161">
        <ele>553.936279</ele>
        <time>2010-01-02T16:22:04Z</time>
      </trkpt>
      <trkpt lat="44.34633" lon="3.59145">
        <ele>559.686218</ele>
        <time>2010-01-02T16:22:16Z</time>
      </trkpt>
      <trkpt lat="44.34643" lon="3.59141">
        <ele>562.672058</ele>
        <time>2010-01-02T16:22:20Z</time>
      </trkpt>
      <trkpt lat="44.3465" lon="3.59144">
        <ele>564.737183</ele>
        <time>2010-01-02T16:22:23Z</time>
      </trkpt>
      <trkpt lat="44.34645" lon="3.59069">
        <ele>570.710999</ele>
        <time>2010-01-02T16:22:45Z</time>
      </trkpt>
      <trkpt lat="44.34635" lon="3.59037">
        <ele>572.361816</ele>
        <time>2010-01-02T16:22:55Z</time>
      </trkpt>
      <trkpt lat="44.34613" lon="3.58999">
        <ele>568.514771</ele>
        <time>2010-01-02T16:23:09Z</time>
      </trkpt>
      <trkpt lat="44.34608" lon="3.58954">
        <ele>577.894226</ele>
        <time>2010-01-02T16:23:22Z</time>
      </trkpt>
      <trkpt lat="44.34601" lon="3.5893">
        <ele>581.656555</ele>
        <time>2010-01-02T16:23:29Z</time>
      </trkpt>
      <trkpt lat="44.3459" lon="3.58926">
        <ele>577.913391</ele>
        <time>2010-01-02T16:23:34Z</time>
      </trkpt>
      <trkpt lat="44.3457" lon="3.5893">
        <ele>567.731384</ele>
        <time>2010-01-02T16:23:42Z</time>
      </trkpt>
      <trkpt lat="44.34495" lon="3.58899">
        <ele>566.413879</ele>
        <time>2010-01-02T16:24:13Z</time>
      </trkpt>
      <trkpt lat="44.34432" lon="3.58897">
        <ele>561.849792</ele>
        <time>2010-01-02T16:24:38Z</time>
      </trkpt>
      <trkpt lat="44.34403" lon="3.58881">
        <ele>564.669922</ele>
        <time>2010-01-02T16:24:51Z</time>
      </trkpt>
      <trkpt lat="44.34379" lon="3.5886">
        <ele>571.262451</ele>
        <time>2010-01-02T16:25:02Z</time>
      </trkpt>
      <trkpt lat="44.34313" lon="3.58871">
        <ele>564.655579</ele>
        <time>2010-01-02T16:25:29Z</time>
      </trkpt>
      <trkpt lat="44.34285" lon="3.58887">
        <ele>561.685791</ele>
        <time>2010-01-02T16:25:41Z</time>
      </trkpt>
      <trkpt lat="44.342" lon="3.58917">
        <ele>556.934998</ele>
        <time>2010-01-02T16:26:16Z</time>
      </trkpt>
      <trkpt lat="44.34158" lon="3.58948">
        <ele>550.767151</ele>
        <time>2010-01-02T16:26:35Z</time>
      </trkpt>
      <trkpt lat="44.34116" lon="3.58977">
        <ele>555.286438</ele>
        <time>2010-01-02T16:26:54Z</time>
      </trkpt>
      <trkpt lat="44.34078" lon="3.58983">
        <ele>567.240601</ele>
        <time>2010-01-02T16:27:09Z</time>
      </trkpt>
      <trkpt lat="44.34065" lon="3.58981">
        <ele>570.440063</ele>
        <time>2010-01-02T16:27:14Z</time>
      </trkpt>
      <trkpt lat="44.33942" lon="3.58856">
        <ele>572.224976</ele>
        <time>2010-01-02T16:28:15Z</time>
      </trkpt>
      <trkpt lat="44.33927" lon="3.58833">
        <ele>568.059998</ele>
        <time>2010-01-02T16:28:24Z</time>
      </trkpt>
      <trkpt lat="44.33779" lon="3.5871">
        <ele>545.573914</ele>
        <time>2010-01-02T16:29:33Z</time>
      </trkpt>
      <trkpt lat="44.33729" lon="3.58731">
        <ele>542.589233</ele>
        <time>2010-01-02T16:29:54Z</time>
      </trkpt>
      <trkpt lat="44.33666" lon="3.58743">
        <ele>539.22937</ele>
        <time>2010-01-02T16:30:19Z</time>
      </trkpt>
      <trkpt lat="44.33651" lon="3.5874">
        <ele>539.595764</ele>
        <time>2010-01-02T16:30:26Z</time>
      </trkpt>
      <trkpt lat="44.33597" lon="3.58691">
        <ele>543.873413</ele>
        <time>2010-01-02T16:30:51Z</time>
      </trkpt>
      <trkpt lat="44.33594" lon="3.58638">
        <ele>542.316528</ele>
        <time>2010-01-02T16:31:06Z</time>
      </trkpt>
      <trkpt lat="44.33609" lon="3.58622">
        <ele>540.732483</ele>
        <time>2010-01-02T16:31:14Z</time>
      </trkpt>
      <trkpt lat="44.33601" lon="3.58602">
        <ele>540.942749</ele>
        <time>2010-01-02T16:31:21Z</time>
      </trkpt>
      <trkpt lat="44.33512" lon="3.58612">
        <ele>556.951843</ele>
        <time>2010-01-02T16:31:56Z</time>
      </trkpt>
      <trkpt lat="44.33446" lon="3.58626">
        <ele>561.702576</ele>
        <time>2010-01-02T16:32:23Z</time>
      </trkpt>
      <trkpt lat="44.3339" lon="3.58662">
        <ele>559.829529</ele>
        <time>2010-01-02T16:32:48Z</time>
      </trkpt>
      <trkpt lat="44.33325" lon="3.58735">
        <ele>561.405029</ele>
        <time>2010-01-02T16:33:21Z</time>
      </trkpt>
      <trkpt lat="44.33293" lon="3.58795">
        <ele>563.626221</ele>
        <time>2010-01-02T16:33:43Z</time>
      </trkpt>
      <trkpt lat="44.33227" lon="3.58973">
        <ele>564.804871</ele>
        <time>2010-01-02T16:34:40Z</time>
      </trkpt>
      <trkpt lat="44.33174" lon="3.59092">
        <ele>574.797974</ele>
        <time>2010-01-02T16:35:20Z</time>
      </trkpt>
      <trkpt lat="44.33151" lon="3.59118">
        <ele>572.174927</ele>
        <time>2010-01-02T16:35:32Z</time>
      </trkpt>
      <trkpt lat="44.33108" lon="3.59056">
        <ele>542.812561</ele>
        <time>2010-01-02T16:35:57Z</time>
      </trkpt>
      <trkpt lat="44.33078" lon="3.59046">
        <ele>540.27356</ele>
        <time>2010-01-02T16:36:09Z</time>
      </trkpt>
      <trkpt lat="44.33022" lon="3.59071">
        <ele>540.998718</ele>
        <time>2010-01-02T16:36:33Z</time>
      </trkpt>
      <trkpt lat="44.32901" lon="3.59166">
        <ele>542.837524</ele>
        <time>2010-01-02T16:37:28Z</time>
      </trkpt>
      <trkpt lat="44.32885" lon="3.59153">
        <ele>543.94696</ele>
        <time>2010-01-02T16:37:35Z</time>
      </trkpt>
      <trkpt lat="44.32873" lon="3.59164">
        <ele>544.127502</ele>
        <time>2010-01-02T16:37:41Z</time>
      </trkpt>
      <trkpt lat="44.32873" lon="3.59187">
        <ele>543.382507</ele>
        <time>2010-01-02T16:37:48Z</time>
      </trkpt>
      <trkpt lat="44.32809" lon="3.5924">
        <ele>543.810852</ele>
        <time>2010-01-02T16:38:18Z</time>
      </trkpt>
      <trkpt lat="44.32477" lon="3.59502">
        <ele>542.793762</ele>
        <time>2010-01-02T16:40:50Z</time>
      </trkpt>
      <trkpt lat="44.32477" lon="3.59483">
        <ele>543.715027</ele>
        <time>2010-01-02T16:40:56Z</time>
      </trkpt>
      <trkpt lat="44.32458" lon="3.59433">
        <ele>546.95874</ele>
        <time>2010-01-02T16:41:12Z</time>
      </trkpt>
      <trkpt lat="44.32426" lon="3.59446">
        <ele>547.016968</ele>
      </trkpt>
      <trkpt lat="44.32396" lon="3.59428">
        <ele>548.172485</ele>
      </trkpt>
      <trkpt lat="44.32418" lon="3.59396">
        <ele>548.941589</ele>
      </trkpt>
      <trkpt lat="44.32406" lon="3.59358">
        <ele>551.316284</ele>
        <time>2010-01-02T16:41:23Z</time>
      </trkpt>
      <trkpt lat="44.32409" lon="3.59231">
        <ele>560.928772</ele>
        <time>2010-01-02T16:41:28Z</time>
      </trkpt>
      <trkpt lat="44.3238" lon="3.5922">
        <ele>559.99646</ele>
        <time>2010-01-02T16:41:38Z</time>
      </trkpt>
      <trkpt lat="44.32377" lon="3.5921">
        <ele>560.425964</ele>
      </trkpt>
      <trkpt lat="44.3238" lon="3.59173">
        <ele>565.007874</ele>
      </trkpt>
      <trkpt lat="44.32407" lon="3.59128">
        <ele>569.920227</ele>
      </trkpt>
      <trkpt lat="44.32382" lon="3.59118">
        <ele>572.224304</ele>
      </trkpt>
      <trkpt lat="44.32394" lon="3.59062">
        <ele>579.182251</ele>
      </trkpt>
      <trkpt lat="44.32402" lon="3.58974">
        <ele>588.911255</ele>
      </trkpt>
      <trkpt lat="44.32441" lon="3.58919">
        <ele>588.534241</ele>
      </trkpt>
      <trkpt lat="44.32439" lon="3.58828">
        <ele>595.977478</ele>
      </trkpt>
      <trkpt lat="44.32418" lon="3.58727">
        <ele>604.164917</ele>
      </trkpt>
      <trkpt lat="44.32473" lon="3.58653">
        <ele>605.822327</ele>
      </trkpt>
      <trkpt lat="44.32476" lon="3.58622">
        <ele>610.446228</ele>
      </trkpt>
      <trkpt lat="44.32428" lon="3.58665">
        <ele>613.269531</ele>
      </trkpt>
      <trkpt lat="44.32389" lon="3.58683">
        <ele>620.002869</ele>
      </trkpt>
      <trkpt lat="44.32363" lon="3.58808">
        <ele>618.144653</ele>
      </trkpt>
      <trkpt lat="44.32338" lon="3.58832">
        <ele>623.142517</ele>
      </trkpt>
      <trkpt lat="44.32284" lon="3.5885">
        <ele>629.268738</ele>
      </trkpt>
      <trkpt lat="44.32233" lon="3.58823">
        <ele>640.081543</ele>
      </trkpt>
      <trkpt lat="44.32169" lon="3.58856">
        <ele>633.127197</ele>
      </trkpt>
      <trkpt lat="44.32061" lon="3.58923">
        <ele>648.370239</ele>
      </trkpt>
      <trkpt lat="44.32127" lon="3.58815">
        <ele>662.861267</ele>
      </trkpt>
      <trkpt lat="44.32184" lon="3.58753">
        <ele>671.266418</ele>
      </trkpt>
      <trkpt lat="44.32229" lon="3.58736">
        <ele>670.786255</ele>
      </trkpt>
      <trkpt lat="44.32261" lon="3.58674">
        <ele>674.340454</ele>
      </trkpt>
      <trkpt lat="44.32267" lon="3.58608">
        <ele>683.654724</ele>
      </trkpt>
      <trkpt lat="44.32254" lon="3.58514">
        <ele>700.169495</ele>
      </trkpt>
      <trkpt lat="44.32309" lon="3.5844">
        <ele>697.036316</ele>
      </trkpt>
      <trkpt lat="44.32305" lon="3.58368">
        <ele>713.338562</ele>
      </trkpt>
      <trkpt lat="44.32315" lon="3.58308">
        <ele>719.31311</ele>
      </trkpt>
      <trkpt lat="44.32343" lon="3.58259">
        <ele>725.396423</ele>
      </trkpt>
      <trkpt lat="44.32392" lon="3.58241">
        <ele>729.813049</ele>
      </trkpt>
      <trkpt lat="44.3244" lon="3.58227">
        <ele>729.618896</ele>
      </trkpt>
      <trkpt lat="44.32469" lon="3.5819">
        <ele>732.900696</ele>
      </trkpt>
      <trkpt lat="44.32497" lon="3.58125">
        <ele>740.362488</ele>
      </trkpt>
      <trkpt lat="44.32563" lon="3.58048">
        <ele>744.742004</ele>
      </trkpt>
      <trkpt lat="44.3262" lon="3.57974">
        <ele>743.070313</ele>
      </trkpt>
      <trkpt lat="44.32646" lon="3.57893">
        <ele>749.087524</ele>
      </trkpt>
      <trkpt lat="44.32719" lon="3.57807">
        <ele>763.171265</ele>
      </trkpt>
      <trkpt lat="44.32757" lon="3.57783">
        <ele>762.324158</ele>
      </trkpt>
      <trkpt lat="44.32832" lon="3.57693">
        <ele>772.405518</ele>
      </trkpt>
      <trkpt lat="44.32964" lon="3.57584">
        <ele>786.243225</ele>
      </trkpt>
      <trkpt lat="44.33059" lon="3.5752">
        <ele>789.412964</ele>
      </trkpt>
      <trkpt lat="44.33053" lon="3.57501">
        <ele>796.557495</ele>
      </trkpt>
      <trkpt lat="44.3298" lon="3.57534">
        <ele>804.067932</ele>
      </trkpt>
      <trkpt lat="44.3282" lon="3.57584">
        <ele>813.560303</ele>
      </trkpt>
      <trkpt lat="44.32761" lon="3.57626">
        <ele>816.114502</ele>
      </trkpt>
      <trkpt lat="44.32732" lon="3.57632">
        <ele>822.244995</ele>
      </trkpt>
      <trkpt lat="44.32675" lon="3.57687">
        <ele>819.059753</ele>
      </trkpt>
      <trkpt lat="44.32632" lon="3.57702">
        <ele>826.574707</ele>
      </trkpt>
      <trkpt lat="44.32566" lon="3.57744">
        <ele>826.374573</ele>
      </trkpt>
      <trkpt lat="44.32537" lon="3.57759">
        <ele>833.774719</ele>
      </trkpt>
      <trkpt lat="44.32558" lon="3.57709">
        <ele>845.109009</ele>
      </trkpt>
      <trkpt lat="44.32596" lon="3.57679">
        <ele>848.337402</ele>
      </trkpt>
      <trkpt lat="44.32651" lon="3.57633">
        <ele>848.756714</ele>
      </trkpt>
      <trkpt lat="44.32688" lon="3.57565">
        <ele>863.028687</ele>
      </trkpt>
      <trkpt lat="44.32762" lon="3.5751">
        <ele>861.811279</ele>
      </trkpt>
      <trkpt lat="44.32797" lon="3.57461">
        <ele>873.782532</ele>
      </trkpt>
      <trkpt lat="44.3291" lon="3.57404">
        <ele>876.367615</ele>
      </trkpt>
      <trkpt lat="44.3296" lon="3.57339">
        <ele>887.000305</ele>
      </trkpt>
      <trkpt lat="44.33037" lon="3.57291">
        <ele>884.53772</ele>
      </trkpt>
      <trkpt lat="44.33092" lon="3.57204">
        <ele>888.826172</ele>
      </trkpt>
      <trkpt lat="44.33125" lon="3.57045">
        <ele>910.565002</ele>
      </trkpt>
      <trkpt lat="44.33151" lon="3.56977">
        <ele>918.62207</ele>
      </trkpt>
      <trkpt lat="44.33244" lon="3.56879">
        <ele>927.237305</ele>
      </trkpt>
      <trkpt lat="44.33274" lon="3.56839">
        <ele>927.001465</ele>
      </trkpt>
      <trkpt lat="44.33274" lon="3.5681">
        <ele>932.226013</ele>
      </trkpt>
      <trkpt lat="44.33204" lon="3.56872">
        <ele>945.336426</ele>
      </trkpt>
      <trkpt lat="44.33127" lon="3.56917">
        <ele>951.442688</ele>
      </trkpt>
      <trkpt lat="44.3309" lon="3.56947">
        <ele>953.178711</ele>
      </trkpt>
      <trkpt lat="44.3303" lon="3.57109">
        <ele>954.690369</ele>
      </trkpt>
      <trkpt lat="44.33007" lon="3.57171">
        <ele>949.600037</ele>
      </trkpt>
      <trkpt lat="44.3298" lon="3.57199">
        <ele>950.74939</ele>
      </trkpt>
      <trkpt lat="44.32953" lon="3.57189">
        <ele>961.671387</ele>
      </trkpt>
      <trkpt lat="44.32955" lon="3.5717">
        <ele>969.376221</ele>
      </trkpt>
      <trkpt lat="44.32992" lon="3.5713">
        <ele>969.536865</ele>
      </trkpt>
      <trkpt lat="44.33013" lon="3.57065">
        <ele>975.679932</ele>
      </trkpt>
      <trkpt lat="44.33016" lon="3.56955">
        <ele>991.727295</ele>
      </trkpt>
      <trkpt lat="44.33017" lon="3.56889">
        <ele>997.580139</ele>
      </trkpt>
      <trkpt lat="44.32995" lon="3.56842">
        <ele>1011.41394</ele>
      </trkpt>
      <trkpt lat="44.32977" lon="3.56816">
        <ele>1018.110535</ele>
      </trkpt>
      <trkpt lat="44.32811" lon="3.56778">
        <ele>1027.607544</ele>
      </trkpt>
      <trkpt lat="44.32963" lon="3.56741">
        <ele>1024.502075</ele>
      </trkpt>
      <trkpt lat="44.32962" lon="3.5668">
        <ele>1025.94043</ele>
      </trkpt>
      <trkpt lat="44.32958" lon="3.56637">
        <ele>1026.089355</ele>
      </trkpt>
      <trkpt lat="44.32933" lon="3.56585">
        <ele>1026.163696</ele>
      </trkpt>
      <trkpt lat="44.32908" lon="3.56553">
        <ele>1030.11377</ele>
      </trkpt>
      <trkpt lat="44.32888" lon="3.56537">
        <ele>1031.870361</ele>
      </trkpt>
      <trkpt lat="44.32881" lon="3.56507">
        <ele>1033.766479</ele>
      </trkpt>
      <trkpt lat="44.32899" lon="3.56483">
        <ele>1035.699585</ele>
      </trkpt>
      <trkpt lat="44.32972" lon="3.56476">
        <ele>1039.875977</ele>
      </trkpt>
      <trkpt lat="44.33056" lon="3.565">
        <ele>1043.739014</ele>
      </trkpt>
      <trkpt lat="44.33188" lon="3.56536">
        <ele>1046.514404</ele>
      </trkpt>
      <trkpt lat="44.33238" lon="3.56523">
        <ele>1043.132568</ele>
      </trkpt>
      <trkpt lat="44.33321" lon="3.56476">
        <ele>1040.601563</ele>
      </trkpt>
      <trkpt lat="44.33397" lon="3.56387">
        <ele>1044.673706</ele>
      </trkpt>
      <trkpt lat="44.33422" lon="3.56317">
        <ele>1042.514282</ele>
      </trkpt>
      <trkpt lat="44.33415" lon="3.56231">
        <ele>1036.816772</ele>
      </trkpt>
      <trkpt lat="44.33403" lon="3.56171">
        <ele>1032.56543</ele>
      </trkpt>
      <trkpt lat="44.33413" lon="3.56143">
        <ele>1031.095703</ele>
      </trkpt>
      <trkpt lat="44.3341" lon="3.56094">
        <ele>1030.147461</ele>
      </trkpt>
      <trkpt lat="44.33415" lon="3.56069">
        <ele>1030.747559</ele>
      </trkpt>
      <trkpt lat="44.33461" lon="3.5597">
        <ele>1032.976196</ele>
      </trkpt>
      <trkpt lat="44.33478" lon="3.5587">
        <ele>1029.130737</ele>
      </trkpt>
      <trkpt lat="44.33489" lon="3.55748">
        <ele>1020.161865</ele>
      </trkpt>
      <trkpt lat="44.33496" lon="3.55689">
        <ele>1021.368713</ele>
      </trkpt>
      <trkpt lat="44.33522" lon="3.55616">
        <ele>1023.431335</ele>
      </trkpt>
      <trkpt lat="44.33619" lon="3.55529">
        <ele>1022.970032</ele>
      </trkpt>
      <trkpt lat="44.33711" lon="3.55451">
        <ele>1019.049988</ele>
      </trkpt>
      <trkpt lat="44.33778" lon="3.5539">
        <ele>1017.871826</ele>
      </trkpt>
      <trkpt lat="44.33893" lon="3.55347">
        <ele>1020.628723</ele>
      </trkpt>
      <trkpt lat="44.33973" lon="3.55289">
        <ele>1017.269287</ele>
      </trkpt>
      <trkpt lat="44.3402" lon="3.55249">
        <ele>1015.331482</ele>
      </trkpt>
      <trkpt lat="44.34068" lon="3.55197">
        <ele>1015.190186</ele>
      </trkpt>
      <trkpt lat="44.34129" lon="3.55167">
        <ele>1017.288513</ele>
      </trkpt>
      <trkpt lat="44.34149" lon="3.55136">
        <ele>1018.59668</ele>
      </trkpt>
      <trkpt lat="44.3415" lon="3.55111">
        <ele>1019.256714</ele>
      </trkpt>
      <trkpt lat="44.34156" lon="3.55058">
        <ele>1021.835938</ele>
      </trkpt>
      <trkpt lat="44.34191" lon="3.54929">
        <ele>1018.880005</ele>
      </trkpt>
      <trkpt lat="44.34244" lon="3.54726">
        <ele>1019.798279</ele>
      </trkpt>
      <trkpt lat="44.34283" lon="3.54636">
        <ele>1021.703735</ele>
      </trkpt>
      <trkpt lat="44.34366" lon="3.54556">
        <ele>1014.642944</ele>
      </trkpt>
      <trkpt lat="44.34431" lon="3.54498">
        <ele>1009.430603</ele>
      </trkpt>
      <trkpt lat="44.34449" lon="3.5445">
        <ele>1006.772278</ele>
      </trkpt>
      <trkpt lat="44.34464" lon="3.5441">
        <ele>1004.358765</ele>
      </trkpt>
      <trkpt lat="44.34489" lon="3.54395">
        <ele>1002.852478</ele>
      </trkpt>
      <trkpt lat="44.34491" lon="3.5437">
        <ele>1001.952515</ele>
      </trkpt>
      <trkpt lat="44.34463" lon="3.54219">
        <ele>994.846008</ele>
      </trkpt>
      <trkpt lat="44.34451" lon="3.54149">
        <ele>990.127014</ele>
      </trkpt>
      <trkpt lat="44.34438" lon="3.54066">
        <ele>985.205017</ele>
      </trkpt>
      <trkpt lat="44.34432" lon="3.53983">
        <ele>982.250427</ele>
      </trkpt>
      <trkpt lat="44.34435" lon="3.53881">
        <ele>980.510864</ele>
      </trkpt>
      <trkpt lat="44.34398" lon="3.53815">
        <ele>980.962341</ele>
      </trkpt>
      <trkpt lat="44.34352" lon="3.53792">
        <ele>981.017273</ele>
      </trkpt>
      <trkpt lat="44.34297" lon="3.53747">
        <ele>981.959717</ele>
      </trkpt>
      <trkpt lat="44.34199" lon="3.5369">
        <ele>979.427002</ele>
      </trkpt>
      <trkpt lat="44.34151" lon="3.53668">
        <ele>979.357483</ele>
      </trkpt>
      <trkpt lat="44.34116" lon="3.53638">
        <ele>976.63623</ele>
      </trkpt>
      <trkpt lat="44.34085" lon="3.53604">
        <ele>973.161438</ele>
      </trkpt>
      <trkpt lat="44.34043" lon="3.53583">
        <ele>970.406372</ele>
      </trkpt>
      <trkpt lat="44.33988" lon="3.53577">
        <ele>969.019592</ele>
      </trkpt>
      <trkpt lat="44.33943" lon="3.5357">
        <ele>968.163757</ele>
      </trkpt>
      <trkpt lat="44.33904" lon="3.53494">
        <ele>958.492004</ele>
      </trkpt>
      <trkpt lat="44.33893" lon="3.53417">
        <ele>949.612366</ele>
      </trkpt>
      <trkpt lat="44.33836" lon="3.53347">
        <ele>940.58313</ele>
      </trkpt>
      <trkpt lat="44.3378" lon="3.53291">
        <ele>935.015137</ele>
      </trkpt>
      <trkpt lat="44.33721" lon="3.5326">
        <ele>926.423523</ele>
      </trkpt>
      <trkpt lat="44.33657" lon="3.53201">
        <ele>922.595398</ele>
      </trkpt>
      <trkpt lat="44.33636" lon="3.53156">
        <ele>923.994385</ele>
      </trkpt>
      <trkpt lat="44.33629" lon="3.53106">
        <ele>925.35675</ele>
      </trkpt>
      <trkpt lat="44.33579" lon="3.53058">
        <ele>920.799988</ele>
      </trkpt>
      <trkpt lat="44.33505" lon="3.53047">
        <ele>915.496277</ele>
      </trkpt>
      <trkpt lat="44.33441" lon="3.5303">
        <ele>911.410278</ele>
      </trkpt>
      <trkpt lat="44.33393" lon="3.52976">
        <ele>907.298767</ele>
      </trkpt>
      <trkpt lat="44.33349" lon="3.52906">
        <ele>905.626587</ele>
      </trkpt>
      <trkpt lat="44.33287" lon="3.52822">
        <ele>902.27124</ele>
      </trkpt>
      <trkpt lat="44.33232" lon="3.52772">
        <ele>899.697083</ele>
      </trkpt>
      <trkpt lat="44.33211" lon="3.52757">
        <ele>898.739746</ele>
      </trkpt>
      <trkpt lat="44.33165" lon="3.52748">
        <ele>895.344543</ele>
      </trkpt>
      <trkpt lat="44.33068" lon="3.52676">
        <ele>891.89502</ele>
      </trkpt>
      <trkpt lat="44.3303" lon="3.52641">
        <ele>890.753174</ele>
      </trkpt>
      <trkpt lat="44.32969" lon="3.52594">
        <ele>889.684326</ele>
      </trkpt>
      <trkpt lat="44.32883" lon="3.52533">
        <ele>889.291443</ele>
      </trkpt>
      <trkpt lat="44.32853" lon="3.5251">
        <ele>890.916443</ele>
      </trkpt>
      <trkpt lat="44.3283" lon="3.52511">
        <ele>891.983337</ele>
      </trkpt>
      <trkpt lat="44.32815" lon="3.52505">
        <ele>892.981689</ele>
      </trkpt>
      <trkpt lat="44.32739" lon="3.52423">
        <ele>897.905762</ele>
      </trkpt>
      <trkpt lat="44.32671" lon="3.52406">
        <ele>898.405029</ele>
      </trkpt>
      <trkpt lat="44.32628" lon="3.52383">
        <ele>900.403931</ele>
      </trkpt>
      <trkpt lat="44.32573" lon="3.52282">
        <ele>903.5401</ele>
      </trkpt>
      <trkpt lat="44.32537" lon="3.52217">
        <ele>905.176758</ele>
      </trkpt>
      <trkpt lat="44.32487" lon="3.52205">
        <ele>908.720093</ele>
      </trkpt>
      <trkpt lat="44.32433" lon="3.52213">
        <ele>915.345581</ele>
      </trkpt>
      <trkpt lat="44.32405" lon="3.52187">
        <ele>913.021057</ele>
      </trkpt>
      <trkpt lat="44.32354" lon="3.5213">
        <ele>906.563721</ele>
      </trkpt>
      <trkpt lat="44.32329" lon="3.52115">
        <ele>904.683838</ele>
      </trkpt>
      <trkpt lat="44.32298" lon="3.52065">
        <ele>899.28833</ele>
      </trkpt>
      <trkpt lat="44.3225" lon="3.52045">
        <ele>899.772888</ele>
      </trkpt>
      <trkpt lat="44.32224" lon="3.52011">
        <ele>896.708923</ele>
      </trkpt>
      <trkpt lat="44.32221" lon="3.51968">
        <ele>892.01001</ele>
      </trkpt>
      <trkpt lat="44.32225" lon="3.51839">
        <ele>881.079956</ele>
      </trkpt>
      <trkpt lat="44.32225" lon="3.51813">
        <ele>880.25116</ele>
      </trkpt>
      <trkpt lat="44.32225" lon="3.51742">
        <ele>878.971313</ele>
      </trkpt>
      <trkpt lat="44.32208" lon="3.51703">
        <ele>879.482849</ele>
      </trkpt>
      <trkpt lat="44.32175" lon="3.51686">
        <ele>882.081604</ele>
      </trkpt>
      <trkpt lat="44.32142" lon="3.51676">
        <ele>882.206238</ele>
      </trkpt>
      <trkpt lat="44.32129" lon="3.51657">
        <ele>881.131226</ele>
      </trkpt>
      <trkpt lat="44.32124" lon="3.51607">
        <ele>879.115295</ele>
      </trkpt>
      <trkpt lat="44.3214" lon="3.51581">
        <ele>879.586731</ele>
      </trkpt>
      <trkpt lat="44.32181" lon="3.51575">
        <ele>876.251221</ele>
      </trkpt>
      <trkpt lat="44.32202" lon="3.51574">
        <ele>871.063599</ele>
      </trkpt>
      <trkpt lat="44.32237" lon="3.51514">
        <ele>866.059082</ele>
      </trkpt>
      <trkpt lat="44.3227" lon="3.51388">
        <ele>867.532776</ele>
      </trkpt>
      <trkpt lat="44.32273" lon="3.51325">
        <ele>875.190002</ele>
      </trkpt>
      <trkpt lat="44.32259" lon="3.51253">
        <ele>882.745789</ele>
      </trkpt>
      <trkpt lat="44.32238" lon="3.5115">
        <ele>883.314148</ele>
      </trkpt>
      <trkpt lat="44.32189" lon="3.51059">
        <ele>885.110107</ele>
      </trkpt>
      <trkpt lat="44.3217" lon="3.51008">
        <ele>881.837952</ele>
      </trkpt>
      <trkpt lat="44.3217" lon="3.50961">
        <ele>877.006226</ele>
      </trkpt>
      <trkpt lat="44.32182" lon="3.50925">
        <ele>871.66217</ele>
      </trkpt>
      <trkpt lat="44.32211" lon="3.50901">
        <ele>865.829834</ele>
      </trkpt>
      <trkpt lat="44.32232" lon="3.50856">
        <ele>865.816223</ele>
      </trkpt>
      <trkpt lat="44.32244" lon="3.50787">
        <ele>874.227905</ele>
      </trkpt>
      <trkpt lat="44.32242" lon="3.50758">
        <ele>877.074951</ele>
      </trkpt>
      <trkpt lat="44.32225" lon="3.50673">
        <ele>888.811279</ele>
      </trkpt>
      <trkpt lat="44.32236" lon="3.50563">
        <ele>906.237488</ele>
      </trkpt>
      <trkpt lat="44.32244" lon="3.50498">
        <ele>913.143921</ele>
      </trkpt>
      <trkpt lat="44.32235" lon="3.5041">
        <ele>922.869995</ele>
      </trkpt>
      <trkpt lat="44.32202" lon="3.50318">
        <ele>937.841248</ele>
      </trkpt>
      <trkpt lat="44.32182" lon="3.50246">
        <ele>946.374573</ele>
      </trkpt>
      <trkpt lat="44.32217" lon="3.50143">
        <ele>961.553833</ele>
      </trkpt>
      <trkpt lat="44.32219" lon="3.49994">
        <ele>971.949402</ele>
      </trkpt>
      <trkpt lat="44.32215" lon="3.4994">
        <ele>969.128723</ele>
      </trkpt>
      <trkpt lat="44.32205" lon="3.49891">
        <ele>965.705017</ele>
      </trkpt>
      <trkpt lat="44.32202" lon="3.49756">
        <ele>958.643677</ele>
      </trkpt>
      <trkpt lat="44.32229" lon="3.49627">
        <ele>958.001221</ele>
      </trkpt>
      <trkpt lat="44.32262" lon="3.49537">
        <ele>955.926025</ele>
      </trkpt>
      <trkpt lat="44.32274" lon="3.49429">
        <ele>946.776978</ele>
      </trkpt>
      <trkpt lat="44.32303" lon="3.49345">
        <ele>940.364502</ele>
      </trkpt>
      <trkpt lat="44.3232" lon="3.49235">
        <ele>934.755005</ele>
      </trkpt>
      <trkpt lat="44.32325" lon="3.49165">
        <ele>931.036316</ele>
      </trkpt>
      <trkpt lat="44.32348" lon="3.49036">
        <ele>929.651245</ele>
      </trkpt>
      <trkpt lat="44.32384" lon="3.48864">
        <ele>928.111084</ele>
      </trkpt>
      <trkpt lat="44.32396" lon="3.48794">
        <ele>928.205444</ele>
      </trkpt>
      <trkpt lat="44.32388" lon="3.487">
        <ele>924.438538</ele>
      </trkpt>
      <trkpt lat="44.32383" lon="3.48624">
        <ele>921.22876</ele>
      </trkpt>
      <trkpt lat="44.32381" lon="3.48549">
        <ele>920.845337</ele>
      </trkpt>
      <trkpt lat="44.32374" lon="3.48493">
        <ele>920.275024</ele>
      </trkpt>
      <trkpt lat="44.32354" lon="3.48441">
        <ele>921.625</ele>
      </trkpt>
      <trkpt lat="44.32338" lon="3.48387">
        <ele>922.150635</ele>
      </trkpt>
      <trkpt lat="44.32353" lon="3.48372">
        <ele>921.988464</ele>
      </trkpt>
      <trkpt lat="44.32408" lon="3.4828">
        <ele>924.349609</ele>
      </trkpt>
      <trkpt lat="44.32442" lon="3.48181">
        <ele>929.075623</ele>
      </trkpt>
      <trkpt lat="44.32455" lon="3.48122">
        <ele>930.192139</ele>
      </trkpt>
      <trkpt lat="44.32456" lon="3.48078">
        <ele>929.997864</ele>
      </trkpt>
      <trkpt lat="44.32407" lon="3.48035">
        <ele>925.459717</ele>
      </trkpt>
      <trkpt lat="44.32343" lon="3.48">
        <ele>925.175232</ele>
      </trkpt>
      <trkpt lat="44.32302" lon="3.47982">
        <ele>923.970581</ele>
      </trkpt>
      <trkpt lat="44.32262" lon="3.47949">
        <ele>924.447815</ele>
      </trkpt>
      <trkpt lat="44.32211" lon="3.47857">
        <ele>925.115723</ele>
      </trkpt>
      <trkpt lat="44.32169" lon="3.47809">
        <ele>920.806641</ele>
      </trkpt>
      <trkpt lat="44.32126" lon="3.47782">
        <ele>919.333984</ele>
      </trkpt>
      <trkpt lat="44.32135" lon="3.47617">
        <ele>923.402527</ele>
      </trkpt>
      <trkpt lat="44.32143" lon="3.47566">
        <ele>921.878723</ele>
      </trkpt>
      <trkpt lat="44.32202" lon="3.47418">
        <ele>917.943115</ele>
      </trkpt>
      <trkpt lat="44.32246" lon="3.47272">
        <ele>913.402527</ele>
      </trkpt>
      <trkpt lat="44.32247" lon="3.47237">
        <ele>912.278748</ele>
      </trkpt>
      <trkpt lat="44.32237" lon="3.47204">
        <ele>910.028748</ele>
      </trkpt>
      <trkpt lat="44.32251" lon="3.47112">
        <ele>906.516235</ele>
      </trkpt>
      <trkpt lat="44.32245" lon="3.47092">
        <ele>905.209534</ele>
      </trkpt>
      <trkpt lat="44.32305" lon="3.47055">
        <ele>908.159241</ele>
      </trkpt>
      <trkpt lat="44.32323" lon="3.47015">
        <ele>907.958374</ele>
      </trkpt>
      <trkpt lat="44.32425" lon="3.46948">
        <ele>904.911255</ele>
      </trkpt>
      <trkpt lat="44.32663" lon="3.46737">
        <ele>880.745117</ele>
      </trkpt>
      <trkpt lat="44.32754" lon="3.46617">
        <ele>881.658997</ele>
      </trkpt>
      <trkpt lat="44.32828" lon="3.46433">
        <ele>893.706726</ele>
      </trkpt>
      <trkpt lat="44.32911" lon="3.46278">
        <ele>909.63739</ele>
      </trkpt>
      <trkpt lat="44.3297" lon="3.46207">
        <ele>918.673401</ele>
      </trkpt>
      <trkpt lat="44.33029" lon="3.46171">
        <ele>927.004028</ele>
      </trkpt>
      <trkpt lat="44.33086" lon="3.46084">
        <ele>932.610596</ele>
      </trkpt>
      <trkpt lat="44.33128" lon="3.45885">
        <ele>957.937134</ele>
      </trkpt>
      <trkpt lat="44.33229" lon="3.45724">
        <ele>980.470093</ele>
      </trkpt>
      <trkpt lat="44.33277" lon="3.45672">
        <ele>982.69751</ele>
      </trkpt>
      <trkpt lat="44.33419" lon="3.45621">
        <ele>966.10791</ele>
      </trkpt>
      <trkpt lat="44.33442" lon="3.45581">
        <ele>965.491394</ele>
      </trkpt>
      <trkpt lat="44.3346" lon="3.45506">
        <ele>972.917664</ele>
      </trkpt>
      <trkpt lat="44.33522" lon="3.45395">
        <ele>980.283264</ele>
      </trkpt>
      <trkpt lat="44.33568" lon="3.45292">
        <ele>987.178284</ele>
      </trkpt>
      <trkpt lat="44.33578" lon="3.4522">
        <ele>984.851013</ele>
      </trkpt>
      <trkpt lat="44.33615" lon="3.45162">
        <ele>988.862244</ele>
      </trkpt>
      <trkpt lat="44.33678" lon="3.44931">
        <ele>996.305786</ele>
      </trkpt>
      <trkpt lat="44.33664" lon="3.44765">
        <ele>999.559143</ele>
      </trkpt>
      <trkpt lat="44.33673" lon="3.44696">
        <ele>1006.399475</ele>
      </trkpt>
      <trkpt lat="44.33739" lon="3.44663">
        <ele>1013.20282</ele>
      </trkpt>
      <trkpt lat="44.33767" lon="3.44522">
        <ele>1020.746643</ele>
      </trkpt>
      <trkpt lat="44.33799" lon="3.44454">
        <ele>1021.728455</ele>
      </trkpt>
      <trkpt lat="44.33813" lon="3.44395">
        <ele>1019.967224</ele>
      </trkpt>
      <trkpt lat="44.33801" lon="3.44316">
        <ele>1022.813293</ele>
      </trkpt>
      <trkpt lat="44.33779" lon="3.44281">
        <ele>1025.862793</ele>
      </trkpt>
      <trkpt lat="44.33786" lon="3.44219">
        <ele>1028.404785</ele>
      </trkpt>
      <trkpt lat="44.3378" lon="3.44137">
        <ele>1032.064575</ele>
      </trkpt>
      <trkpt lat="44.33713" lon="3.43901">
        <ele>1021.181519</ele>
      </trkpt>
      <trkpt lat="44.33734" lon="3.43811">
        <ele>1016.86145</ele>
      </trkpt>
      <trkpt lat="44.33712" lon="3.43744">
        <ele>1017.457153</ele>
      </trkpt>
      <trkpt lat="44.3368" lon="3.43628">
        <ele>1005.821716</ele>
      </trkpt>
      <trkpt lat="44.33678" lon="3.43575">
        <ele>1000.220886</ele>
      </trkpt>
      <trkpt lat="44.33685" lon="3.43525">
        <ele>995.375122</ele>
      </trkpt>
      <trkpt lat="44.33721" lon="3.43488">
        <ele>986.563599</ele>
      </trkpt>
      <trkpt lat="44.33762" lon="3.4352">
        <ele>982.661255</ele>
      </trkpt>
      <trkpt lat="44.33795" lon="3.43539">
        <ele>981.966248</ele>
      </trkpt>
      <trkpt lat="44.33796" lon="3.43461">
        <ele>973.797424</ele>
      </trkpt>
      <trkpt lat="44.33776" lon="3.43395">
        <ele>973.778381</ele>
      </trkpt>
      <trkpt lat="44.33757" lon="3.43347">
        <ele>975.692871</ele>
      </trkpt>
      <trkpt lat="44.33795" lon="3.43348">
        <ele>971.610779</ele>
      </trkpt>
      <trkpt lat="44.33856" lon="3.43318">
        <ele>968.858643</ele>
      </trkpt>
      <trkpt lat="44.33909" lon="3.43184">
        <ele>990.357483</ele>
      </trkpt>
      <trkpt lat="44.33958" lon="3.43032">
        <ele>1005.763794</ele>
      </trkpt>
      <trkpt lat="44.33976" lon="3.42969">
        <ele>1012.317444</ele>
      </trkpt>
      <trkpt lat="44.33981" lon="3.42926">
        <ele>1015.10144</ele>
      </trkpt>
      <trkpt lat="44.33981" lon="3.42904">
        <ele>1015.818054</ele>
      </trkpt>
      <trkpt lat="44.33897" lon="3.42821">
        <ele>1002.710327</ele>
      </trkpt>
      <trkpt lat="44.33818" lon="3.42782">
        <ele>999.805786</ele>
      </trkpt>
      <trkpt lat="44.33733" lon="3.42742">
        <ele>1002.237488</ele>
      </trkpt>
      <trkpt lat="44.33671" lon="3.42719">
        <ele>1004.789978</ele>
      </trkpt>
      <trkpt lat="44.33614" lon="3.42734">
        <ele>1007.552368</ele>
      </trkpt>
      <trkpt lat="44.33589" lon="3.42746">
        <ele>1009.749756</ele>
      </trkpt>
      <trkpt lat="44.3358" lon="3.4279">
        <ele>1007.605042</ele>
      </trkpt>
      <trkpt lat="44.33571" lon="3.42792">
        <ele>1009.121887</ele>
      </trkpt>
      <trkpt lat="44.33569" lon="3.42755">
        <ele>1012.214722</ele>
      </trkpt>
      <trkpt lat="44.33565" lon="3.42705">
        <ele>1015.61792</ele>
      </trkpt>
      <trkpt lat="44.33545" lon="3.42704">
        <ele>1019.577393</ele>
      </trkpt>
      <trkpt lat="44.33511" lon="3.42744">
        <ele>1024.235962</ele>
      </trkpt>
      <trkpt lat="44.33481" lon="3.4275">
        <ele>1030.653809</ele>
      </trkpt>
      <trkpt lat="44.33389" lon="3.42758">
        <ele>1037.88208</ele>
      </trkpt>
      <trkpt lat="44.33374" lon="3.42756">
        <ele>1037.129517</ele>
        <time>2011-07-23T11:11:03Z</time>
      </trkpt>
      <trkpt lat="44.33342" lon="3.42763">
        <ele>1035.352539</ele>
        <time>2011-07-23T11:10:41Z</time>
      </trkpt>
      <trkpt lat="44.33302" lon="3.4281">
        <ele>1032.407471</ele>
        <time>2011-07-23T11:10:27Z</time>
      </trkpt>
      <trkpt lat="44.33292" lon="3.42834">
        <ele>1032.517944</ele>
        <time>2011-07-23T11:10:23Z</time>
      </trkpt>
      <trkpt lat="44.33257" lon="3.42884">
        <ele>1032.784546</ele>
        <time>2011-07-23T11:10:11Z</time>
      </trkpt>
      <trkpt lat="44.33227" lon="3.42899">
        <ele>1030.938477</ele>
        <time>2011-07-23T11:10:03Z</time>
      </trkpt>
      <trkpt lat="44.33166" lon="3.42918">
        <ele>1026.666626</ele>
        <time>2011-07-23T11:09:47Z</time>
      </trkpt>
      <trkpt lat="44.33139" lon="3.42922">
        <ele>1024.909912</ele>
        <time>2011-07-23T11:09:39Z</time>
      </trkpt>
      <trkpt lat="44.33086" lon="3.42938">
        <ele>1023.041504</ele>
        <time>2011-07-23T11:09:22Z</time>
      </trkpt>
      <trkpt lat="44.33058" lon="3.4295">
        <ele>1021.505005</ele>
        <time>2011-07-23T11:09:14Z</time>
      </trkpt>
      <trkpt lat="44.33003" lon="3.42963">
        <ele>1018.942993</ele>
        <time>2011-07-23T11:09:06Z</time>
      </trkpt>
      <trkpt lat="44.32961" lon="3.42966">
        <ele>1018.44751</ele>
        <time>2011-07-23T11:09:02Z</time>
      </trkpt>
      <trkpt lat="44.32884" lon="3.42955">
        <ele>1020.096985</ele>
        <time>2011-07-23T11:08:54Z</time>
      </trkpt>
      <trkpt lat="44.3286" lon="3.42946">
        <ele>1020.853394</ele>
        <time>2011-07-23T11:08:50Z</time>
      </trkpt>
      <trkpt lat="44.32797" lon="3.42935">
        <ele>1024.077393</ele>
        <time>2011-07-23T11:08:35Z</time>
      </trkpt>
      <trkpt lat="44.32778" lon="3.42933">
        <ele>1025.381592</ele>
        <time>2011-07-23T11:08:31Z</time>
      </trkpt>
      <trkpt lat="44.32737" lon="3.42929">
        <ele>1026.735718</ele>
        <time>2011-07-23T11:08:23Z</time>
      </trkpt>
      <trkpt lat="44.32718" lon="3.42927">
        <ele>1027.030273</ele>
        <time>2011-07-23T11:08:19Z</time>
      </trkpt>
      <trkpt lat="44.32677" lon="3.42926">
        <ele>1027.06189</ele>
        <time>2011-07-23T11:08:10Z</time>
      </trkpt>
      <trkpt lat="44.32658" lon="3.42928">
        <ele>1026.155151</ele>
        <time>2011-07-23T11:08:06Z</time>
      </trkpt>
      <trkpt lat="44.32618" lon="3.42935">
        <ele>1024.732178</ele>
        <time>2011-07-23T11:07:58Z</time>
      </trkpt>
      <trkpt lat="44.3259" lon="3.4294">
        <ele>1024.219849</ele>
        <time>2011-07-23T11:07:54Z</time>
      </trkpt>
      <trkpt lat="44.32531" lon="3.42941">
        <ele>1023.989746</ele>
        <time>2011-07-23T11:07:46Z</time>
      </trkpt>
      <trkpt lat="44.32506" lon="3.42933">
        <ele>1023.075073</ele>
        <time>2011-07-23T11:07:42Z</time>
      </trkpt>
      <trkpt lat="44.32465" lon="3.42922">
        <ele>1022.035034</ele>
        <time>2011-07-23T11:07:34Z</time>
      </trkpt>
      <trkpt lat="44.32436" lon="3.42924">
        <ele>1021.842346</ele>
        <time>2011-07-23T11:07:27Z</time>
      </trkpt>
      <trkpt lat="44.32386" lon="3.42953">
        <ele>1020.587158</ele>
        <time>2011-07-23T11:07:11Z</time>
      </trkpt>
      <trkpt lat="44.32361" lon="3.4297">
        <ele>1018.936401</ele>
        <time>2011-07-23T11:07:04Z</time>
      </trkpt>
      <trkpt lat="44.32324" lon="3.42994">
        <ele>1018.843994</ele>
        <time>2011-07-23T11:06:56Z</time>
      </trkpt>
      <trkpt lat="44.32303" lon="3.43006">
        <ele>1019.135498</ele>
        <time>2011-07-23T11:06:52Z</time>
      </trkpt>
      <trkpt lat="44.32263" lon="3.43024">
        <ele>1018.849976</ele>
        <time>2011-07-23T11:06:44Z</time>
      </trkpt>
      <trkpt lat="44.32238" lon="3.43033">
        <ele>1018.307495</ele>
        <time>2011-07-23T11:06:40Z</time>
      </trkpt>
      <trkpt lat="44.3218" lon="3.43046">
        <ele>1018.21283</ele>
        <time>2011-07-23T11:06:32Z</time>
      </trkpt>
      <trkpt lat="44.3215" lon="3.43044">
        <ele>1018.843323</ele>
        <time>2011-07-23T11:06:28Z</time>
      </trkpt>
      <trkpt lat="44.32102" lon="3.43041">
        <ele>1019.895569</ele>
        <time>2011-07-23T11:06:20Z</time>
      </trkpt>
      <trkpt lat="44.32081" lon="3.43045">
        <ele>1021.451233</ele>
        <time>2011-07-23T11:06:16Z</time>
      </trkpt>
      <trkpt lat="44.32036" lon="3.43054">
        <ele>1025.573608</ele>
        <time>2011-07-23T11:06:07Z</time>
      </trkpt>
      <trkpt lat="44.32017" lon="3.4306">
        <ele>1026.933228</ele>
        <time>2011-07-23T11:06:03Z</time>
      </trkpt>
      <trkpt lat="44.31963" lon="3.43093">
        <ele>1029.735229</ele>
        <time>2011-07-23T11:05:46Z</time>
      </trkpt>
      <trkpt lat="44.3194" lon="3.43107">
        <ele>1029.209961</ele>
        <time>2011-07-23T11:05:38Z</time>
      </trkpt>
      <trkpt lat="44.31881" lon="3.43146">
        <ele>1027.23584</ele>
        <time>2011-07-23T11:05:22Z</time>
      </trkpt>
      <trkpt lat="44.31855" lon="3.43162">
        <ele>1026.48584</ele>
        <time>2011-07-23T11:05:14Z</time>
      </trkpt>
      <trkpt lat="44.31807" lon="3.43186">
        <ele>1024.946777</ele>
        <time>2011-07-23T11:04:58Z</time>
      </trkpt>
      <trkpt lat="44.31784" lon="3.43197">
        <ele>1023.820679</ele>
        <time>2011-07-23T11:04:50Z</time>
      </trkpt>
      <trkpt lat="44.31737" lon="3.43221">
        <ele>1021.925171</ele>
        <time>2011-07-23T11:04:34Z</time>
      </trkpt>
      <trkpt lat="44.31713" lon="3.43234">
        <ele>1020.163696</ele>
        <time>2011-07-23T11:04:26Z</time>
      </trkpt>
      <trkpt lat="44.31661" lon="3.4326">
        <ele>1016.749084</ele>
        <time>2011-07-23T11:04:10Z</time>
      </trkpt>
      <trkpt lat="44.31634" lon="3.43274">
        <ele>1015.070618</ele>
        <time>2011-07-23T11:04:02Z</time>
      </trkpt>
      <trkpt lat="44.31581" lon="3.43299">
        <ele>1010.809021</ele>
        <time>2011-07-23T11:03:49Z</time>
      </trkpt>
      <trkpt lat="44.3155" lon="3.43314">
        <ele>1008.810059</ele>
        <time>2011-07-23T11:03:41Z</time>
      </trkpt>
      <trkpt lat="44.31492" lon="3.43338">
        <ele>1004.544983</ele>
        <time>2011-07-23T11:03:25Z</time>
      </trkpt>
      <trkpt lat="44.31464" lon="3.43341">
        <ele>1003.318726</ele>
        <time>2011-07-23T11:03:17Z</time>
      </trkpt>
      <trkpt lat="44.31412" lon="3.43325">
        <ele>1003.593262</ele>
        <time>2011-07-23T11:03:02Z</time>
      </trkpt>
      <trkpt lat="44.31387" lon="3.43308">
        <ele>1004.977966</ele>
        <time>2011-07-23T11:02:58Z</time>
      </trkpt>
      <trkpt lat="44.31322" lon="3.43298">
        <ele>1010.799988</ele>
        <time>2011-07-23T11:02:50Z</time>
      </trkpt>
      <trkpt lat="44.31297" lon="3.43291">
        <ele>1013.450989</ele>
        <time>2011-07-23T11:02:45Z</time>
      </trkpt>
      <trkpt lat="44.31242" lon="3.43314">
        <ele>1019.308716</ele>
        <time>2011-07-23T11:02:10Z</time>
      </trkpt>
      <trkpt lat="44.3121" lon="3.43317">
        <ele>1019.408936</ele>
        <time>2011-07-23T11:01:49Z</time>
      </trkpt>
      <trkpt lat="44.31145" lon="3.43327">
        <ele>1014.30542</ele>
        <time>2011-07-23T11:01:06Z</time>
      </trkpt>
      <trkpt lat="44.31119" lon="3.43358">
        <ele>1010.514587</ele>
        <time>2011-07-23T11:00:43Z</time>
      </trkpt>
      <trkpt lat="44.31058" lon="3.43389">
        <ele>1000.86377</ele>
        <time>2011-07-23T10:59:56Z</time>
      </trkpt>
      <trkpt lat="44.31026" lon="3.43395">
        <ele>995.963745</ele>
        <time>2011-07-23T10:59:32Z</time>
      </trkpt>
      <trkpt lat="44.30964" lon="3.43427">
        <ele>986.532471</ele>
        <time>2011-07-23T10:58:42Z</time>
      </trkpt>
      <trkpt lat="44.3093" lon="3.43429">
        <ele>981.27002</ele>
        <time>2011-07-23T10:58:18Z</time>
      </trkpt>
      <trkpt lat="44.30864" lon="3.4343">
        <ele>971.625</ele>
        <time>2011-07-23T10:57:40Z</time>
      </trkpt>
      <trkpt lat="44.30833" lon="3.43419">
        <ele>968.642517</ele>
        <time>2011-07-23T10:57:30Z</time>
      </trkpt>
      <trkpt lat="44.30777" lon="3.43386">
        <ele>967.239258</ele>
        <time>2011-07-23T10:57:14Z</time>
      </trkpt>
      <trkpt lat="44.30749" lon="3.43375">
        <ele>969.169006</ele>
        <time>2011-07-23T10:57:04Z</time>
      </trkpt>
      <trkpt lat="44.30686" lon="3.43363">
        <ele>970.565735</ele>
        <time>2011-07-23T10:56:39Z</time>
      </trkpt>
      <trkpt lat="44.30655" lon="3.43373">
        <ele>971.026794</ele>
        <time>2011-07-23T10:56:27Z</time>
      </trkpt>
      <trkpt lat="44.30598" lon="3.43406">
        <ele>969.0979</ele>
        <time>2011-07-23T10:55:57Z</time>
      </trkpt>
      <trkpt lat="44.30569" lon="3.43428">
        <ele>966.56427</ele>
        <time>2011-07-23T10:55:39Z</time>
      </trkpt>
      <trkpt lat="44.30516" lon="3.43484">
        <ele>960.438293</ele>
        <time>2011-07-23T10:54:59Z</time>
      </trkpt>
      <trkpt lat="44.30488" lon="3.43495">
        <ele>958.26123</ele>
        <time>2011-07-23T10:54:38Z</time>
      </trkpt>
      <trkpt lat="44.30453" lon="3.43447">
        <ele>955.70752</ele>
        <time>2011-07-23T10:54:14Z</time>
      </trkpt>
      <trkpt lat="44.30423" lon="3.43454">
        <ele>955.172485</ele>
        <time>2011-07-23T10:54:06Z</time>
      </trkpt>
      <trkpt lat="44.30365" lon="3.43465">
        <ele>953.162476</ele>
        <time>2011-07-23T10:53:50Z</time>
      </trkpt>
      <trkpt lat="44.30337" lon="3.43473">
        <ele>952.182495</ele>
        <time>2011-07-23T10:53:42Z</time>
      </trkpt>
      <trkpt lat="44.30284" lon="3.43504">
        <ele>949.908752</ele>
        <time>2011-07-23T10:53:26Z</time>
      </trkpt>
      <trkpt lat="44.30254" lon="3.43504">
        <ele>948.580017</ele>
        <time>2011-07-23T10:53:18Z</time>
      </trkpt>
      <trkpt lat="44.30204" lon="3.43497">
        <ele>946.242493</ele>
        <time>2011-07-23T10:53:02Z</time>
      </trkpt>
      <trkpt lat="44.30179" lon="3.43503">
        <ele>945.619812</ele>
        <time>2011-07-23T10:52:54Z</time>
      </trkpt>
      <trkpt lat="44.3013" lon="3.43516">
        <ele>945.862488</ele>
        <time>2011-07-23T10:52:38Z</time>
      </trkpt>
      <trkpt lat="44.30106" lon="3.43529">
        <ele>946.642517</ele>
        <time>2011-07-23T10:52:30Z</time>
      </trkpt>
      <trkpt lat="44.30056" lon="3.43549">
        <ele>946.65625</ele>
        <time>2011-07-23T10:52:14Z</time>
      </trkpt>
      <trkpt lat="44.30031" lon="3.43561">
        <ele>946.491272</ele>
        <time>2011-07-23T10:52:06Z</time>
      </trkpt>
      <trkpt lat="44.29972" lon="3.43571">
        <ele>943.664978</ele>
        <time>2011-07-23T10:51:47Z</time>
      </trkpt>
      <trkpt lat="44.29945" lon="3.43582">
        <ele>942.392151</ele>
        <time>2011-07-23T10:51:39Z</time>
      </trkpt>
      <trkpt lat="44.29892" lon="3.43601">
        <ele>939.748718</ele>
        <time>2011-07-23T10:51:23Z</time>
      </trkpt>
      <trkpt lat="44.29866" lon="3.43612">
        <ele>938.268188</ele>
        <time>2011-07-23T10:51:15Z</time>
      </trkpt>
      <trkpt lat="44.29808" lon="3.43636">
        <ele>935.287476</ele>
        <time>2011-07-23T10:50:59Z</time>
      </trkpt>
      <trkpt lat="44.29779" lon="3.43646">
        <ele>934.57251</ele>
        <time>2011-07-23T10:50:51Z</time>
      </trkpt>
      <trkpt lat="44.29722" lon="3.4367">
        <ele>934.625</ele>
        <time>2011-07-23T10:50:35Z</time>
      </trkpt>
      <trkpt lat="44.29692" lon="3.4368">
        <ele>934.96582</ele>
        <time>2011-07-23T10:50:27Z</time>
      </trkpt>
      <trkpt lat="44.29631" lon="3.43698">
        <ele>934.477478</ele>
        <time>2011-07-23T10:50:11Z</time>
      </trkpt>
      <trkpt lat="44.29609" lon="3.43723">
        <ele>933.984985</ele>
        <time>2011-07-23T10:50:02Z</time>
      </trkpt>
      <trkpt lat="44.29566" lon="3.43772">
        <ele>932.559326</ele>
        <time>2011-07-23T10:49:43Z</time>
      </trkpt>
      <trkpt lat="44.29541" lon="3.43793">
        <ele>931.817505</ele>
        <time>2011-07-23T10:49:33Z</time>
      </trkpt>
      <trkpt lat="44.2949" lon="3.43831">
        <ele>930.808716</ele>
        <time>2011-07-23T10:49:14Z</time>
      </trkpt>
      <trkpt lat="44.29465" lon="3.43853">
        <ele>930.626221</ele>
        <time>2011-07-23T10:49:04Z</time>
      </trkpt>
      <trkpt lat="44.29411" lon="3.43887">
        <ele>929.371033</ele>
        <time>2011-07-23T10:48:44Z</time>
      </trkpt>
      <trkpt lat="44.29385" lon="3.43901">
        <ele>928.660583</ele>
        <time>2011-07-23T10:48:35Z</time>
      </trkpt>
      <trkpt lat="44.2933" lon="3.43938">
        <ele>928</ele>
        <time>2011-07-23T10:48:20Z</time>
      </trkpt>
      <trkpt lat="44.29314" lon="3.43952">
        <ele>928</ele>
        <time>2011-07-23T10:48:16Z</time>
      </trkpt>
      <trkpt lat="44.29279" lon="3.43982">
        <ele>928.559998</ele>
        <time>2011-07-23T10:48:08Z</time>
      </trkpt>
      <trkpt lat="44.29263" lon="3.43999">
        <ele>929.026306</ele>
        <time>2011-07-23T10:48:04Z</time>
      </trkpt>
      <trkpt lat="44.29229" lon="3.44025">
        <ele>929.532471</ele>
        <time>2011-07-23T10:47:56Z</time>
      </trkpt>
      <trkpt lat="44.29204" lon="3.44044">
        <ele>930.032532</ele>
        <time>2011-07-23T10:47:49Z</time>
      </trkpt>
      <trkpt lat="44.29154" lon="3.44076">
        <ele>929.641235</ele>
        <time>2011-07-23T10:47:33Z</time>
      </trkpt>
      <trkpt lat="44.29131" lon="3.44094">
        <ele>929.266235</ele>
        <time>2011-07-23T10:47:25Z</time>
      </trkpt>
      <trkpt lat="44.29079" lon="3.44098">
        <ele>929.45752</ele>
        <time>2011-07-23T10:47:09Z</time>
      </trkpt>
      <trkpt lat="44.29049" lon="3.44095">
        <ele>929.51239</ele>
        <time>2011-07-23T10:47:01Z</time>
      </trkpt>
      <trkpt lat="44.29008" lon="3.44109">
        <ele>929.851746</ele>
        <time>2011-07-23T10:46:52Z</time>
      </trkpt>
      <trkpt lat="44.28976" lon="3.44121">
        <ele>931.744263</ele>
        <time>2011-07-23T10:46:44Z</time>
      </trkpt>
      <trkpt lat="44.2892" lon="3.44139">
        <ele>935.264465</ele>
        <time>2011-07-23T10:46:26Z</time>
      </trkpt>
      <trkpt lat="44.28894" lon="3.44151">
        <ele>936.920532</ele>
        <time>2011-07-23T10:46:17Z</time>
      </trkpt>
      <trkpt lat="44.28837" lon="3.44175">
        <ele>939.089661</ele>
        <time>2011-07-23T10:45:57Z</time>
      </trkpt>
      <trkpt lat="44.28806" lon="3.44189">
        <ele>939.182495</ele>
        <time>2011-07-23T10:45:46Z</time>
      </trkpt>
      <trkpt lat="44.28759" lon="3.44214">
        <ele>938.777527</ele>
        <time>2011-07-23T10:45:30Z</time>
      </trkpt>
      <trkpt lat="44.2873" lon="3.44225">
        <ele>937.601013</ele>
        <time>2011-07-23T10:45:20Z</time>
      </trkpt>
      <trkpt lat="44.28666" lon="3.44252">
        <ele>935.202881</ele>
        <time>2011-07-23T10:44:56Z</time>
      </trkpt>
      <trkpt lat="44.28634" lon="3.44266">
        <ele>934.62854</ele>
        <time>2011-07-23T10:44:44Z</time>
      </trkpt>
      <trkpt lat="44.28582" lon="3.443">
        <ele>934.94751</ele>
        <time>2011-07-23T10:44:24Z</time>
      </trkpt>
      <trkpt lat="44.28559" lon="3.4432">
        <ele>936.012512</ele>
        <time>2011-07-23T10:44:15Z</time>
      </trkpt>
      <trkpt lat="44.28512" lon="3.44369">
        <ele>938.447876</ele>
        <time>2011-07-23T10:43:53Z</time>
      </trkpt>
      <trkpt lat="44.28486" lon="3.44393">
        <ele>939.033264</ele>
        <time>2011-07-23T10:43:42Z</time>
      </trkpt>
      <trkpt lat="44.28441" lon="3.44448">
        <ele>940.630005</ele>
        <time>2011-07-23T10:42:35Z</time>
      </trkpt>
      <trkpt lat="44.2843" lon="3.44483">
        <ele>941.241516</ele>
        <time>2011-07-23T10:42:27Z</time>
      </trkpt>
      <trkpt lat="44.28401" lon="3.44558">
        <ele>945.065674</ele>
        <time>2011-07-23T10:42:04Z</time>
      </trkpt>
      <trkpt lat="44.28379" lon="3.44592">
        <ele>948.401794</ele>
        <time>2011-07-23T10:41:49Z</time>
      </trkpt>
      <trkpt lat="44.28329" lon="3.44569">
        <ele>950.653931</ele>
        <time>2011-07-23T10:39:36Z</time>
      </trkpt>
      <trkpt lat="44.28273" lon="3.44502">
        <ele>952.295044</ele>
        <time>2011-07-23T10:39:28Z</time>
      </trkpt>
      <trkpt lat="44.28227" lon="3.44539">
        <ele>950.607666</ele>
      </trkpt>
      <trkpt lat="44.28102" lon="3.44683">
        <ele>934.843384</ele>
      </trkpt>
      <trkpt lat="44.28047" lon="3.44798">
        <ele>927.473999</ele>
      </trkpt>
      <trkpt lat="44.27963" lon="3.44884">
        <ele>928.10376</ele>
      </trkpt>
      <trkpt lat="44.27834" lon="3.44932">
        <ele>934.416626</ele>
      </trkpt>
      <trkpt lat="44.27626" lon="3.45046">
        <ele>948.399109</ele>
      </trkpt>
      <trkpt lat="44.27585" lon="3.45127">
        <ele>951.628479</ele>
      </trkpt>
      <trkpt lat="44.27485" lon="3.45272">
        <ele>950.39386</ele>
      </trkpt>
      <trkpt lat="44.2741" lon="3.45324">
        <ele>955.258728</ele>
      </trkpt>
      <trkpt lat="44.27351" lon="3.45388">
        <ele>959.410156</ele>
      </trkpt>
      <trkpt lat="44.27229" lon="3.45461">
        <ele>963.39624</ele>
      </trkpt>
      <trkpt lat="44.271" lon="3.45496">
        <ele>959.993774</ele>
      </trkpt>
      <trkpt lat="44.26917" lon="3.45614">
        <ele>946.827454</ele>
      </trkpt>
      <trkpt lat="44.26754" lon="3.45724">
        <ele>940.123169</ele>
      </trkpt>
      <trkpt lat="44.2669" lon="3.45823">
        <ele>944.057495</ele>
      </trkpt>
      <trkpt lat="44.2666" lon="3.45888">
        <ele>948.611267</ele>
      </trkpt>
      <trkpt lat="44.26497" lon="3.4601">
        <ele>955.02124</ele>
        <time>2011-07-23T10:39:11Z</time>
      </trkpt>
    </trkseg>
  </trk>
</gpx>